Observation data for Lesley on 01/12/2018      Previous  Date  Next       Current Mesonet Observations  Soil Data  Daily Summary Page  Observations in Plain Language
KLE1 120600Z 27007KT M05/M10 A303 RMK A01 T10501103  RH  066%=      5-min Rain = 0
KLE1 120601Z 28006KT M05/M10 A303 RMK A01 T10491103  RH  066%=      5-min Rain = 0
KLE1 120602Z 28007KT M05/M10 A303 RMK A01 T10491104  RH  066%=      5-min Rain = 0
KLE1 120603Z 28006KT M05/M10 A303 RMK A01 T10491104  RH  065%=      5-min Rain = 0
KLE1 120604Z 28005KT M05/M10 A303 RMK A01 T10491104  RH  065%=      5-min Rain = 0
KLE1 120605Z 28006KT M05/M10 A3029 RMK A01 T10491104  RH  065%=      5-min Rain = 0
KLE1 120606Z 28006KT M05/M10 A3029 RMK A01 T10491104  RH  066%=      5-min Rain = 0
KLE1 120607Z 28006KT M05/M10 A3029 RMK A01 T10491104  RH  066%=      5-min Rain = 0
KLE1 120608Z 29006KT M05/M10 A3029 RMK A01 T10491104  RH  066%=      5-min Rain = 0
KLE1 120609Z 29006KT M05/M10 A3029 RMK A01 T10491104  RH  066%=      5-min Rain = 0
KLE1 120610Z 29006KT M05/M10 A3029 RMK A01 T10501104  RH  066%=      5-min Rain = 0
KLE1 120611Z 30006KT M05/M10 A3029 RMK A01 T10501104  RH  066%=      5-min Rain = 0
KLE1 120612Z 30006KT M05/M10 A3029 RMK A01 T10501104  RH  066%=      5-min Rain = 0
KLE1 120613Z 30006KT M05/M10 A3029 RMK A01 T10501104  RH  066%=      5-min Rain = 0
KLE1 120614Z 30006KT M05/M10 A3029 RMK A01 T10491102  RH  067%=      5-min Rain = 0
KLE1 120615Z 30006KT M05/M10 A3029 RMK A01 T10481101  RH  067%=      5-min Rain = 0
KLE1 120616Z 30006KT M05/M10 A3029 RMK A01 T10481100  RH  067%=      5-min Rain = 0
KLE1 120617Z 30006KT M05/M10 A3029 RMK A01 T10481099  RH  067%=      5-min Rain = 0
KLE1 120618Z 30006KT M05/M10 A3029 RMK A01 T10471099  RH  067%=      5-min Rain = 0
KLE1 120619Z 31005KT M05/M10 A3029 RMK A01 T10461098  RH  067%=      5-min Rain = 0
KLE1 120620Z 32005KT M05/M10 A3029 RMK A01 T10481101  RH  066%=      5-min Rain = 0
KLE1 120621Z 32005KT M05/M11 A3029 RMK A01 T10511105  RH  066%=      5-min Rain = 0
KLE1 120622Z 32006KT M05/M11 A3029 RMK A01 T10541108  RH  066%=      5-min Rain = 0
KLE1 120623Z 31006KT M06/M11 A3029 RMK A01 T10571109  RH  066%=      5-min Rain = 0
KLE1 120624Z 31006KT M06/M11 A3029 RMK A01 T10571109  RH  067%=      5-min Rain = 0
KLE1 120625Z 31007KT M06/M11 A3029 RMK A01 T10581109  RH  067%=      5-min Rain = 0
KLE1 120626Z 31007KT M06/M11 A3029 RMK A01 T10581109  RH  068%=      5-min Rain = 0
KLE1 120627Z 31007KT M06/M11 A3029 RMK A01 T10581106  RH  069%=      5-min Rain = 0
KLE1 120628Z 31006KT M06/M10 A3029 RMK A01 T10551104  RH  069%=      5-min Rain = 0
KLE1 120629Z 30006KT M05/M10 A3029 RMK A01 T10541104  RH  068%=      5-min Rain = 0
KLE1 120630Z 31005KT M05/M11 A3029 RMK A01 T10541105  RH  067%=      5-min Rain = 0
KLE1 120631Z 31006KT M05/M11 A3029 RMK A01 T10541106  RH  067%=      5-min Rain = 0
KLE1 120632Z 31006KT M05/M11 A303 RMK A01 T10541107  RH  067%=      5-min Rain = 0
KLE1 120633Z 31005KT M06/M11 A303 RMK A01 T10551107  RH  067%=      5-min Rain = 0
KLE1 120634Z 32005KT M06/M11 A3029 RMK A01 T10551108  RH  066%=      5-min Rain = 0
KLE1 120635Z 32005KT M06/M11 A3029 RMK A01 T10571110  RH  066%=      5-min Rain = 0
KLE1 120636Z 31006KT M06/M11 A3029 RMK A01 T10581110  RH  067%=      5-min Rain = 0
KLE1 120637Z 31006KT M06/M11 A3029 RMK A01 T10581110  RH  067%=      5-min Rain = 0
KLE1 120638Z 31005KT M06/M11 A3029 RMK A01 T10581109  RH  067%=      5-min Rain = 0
KLE1 120639Z 31005KT M06/M11 A3029 RMK A01 T10591110  RH  067%=      5-min Rain = 0
KLE1 120640Z 31005KT M06/M11 A3029 RMK A01 T10581109  RH  067%=      5-min Rain = 0
KLE1 120641Z 31005KT M06/M11 A3029 RMK A01 T10581109  RH  067%=      5-min Rain = 0
KLE1 120642Z 31005KT M06/M11 A3029 RMK A01 T10581109  RH  067%=      5-min Rain = 0
KLE1 120643Z 31005KT M06/M11 A3029 RMK A01 T10591109  RH  067%=      5-min Rain = 0
KLE1 120644Z 31005KT M06/M11 A3029 RMK A01 T10581109  RH  067%=      5-min Rain = 0
KLE1 120645Z 31005KT M06/M11 A3029 RMK A01 T10581109  RH  067%=      5-min Rain = 0
KLE1 120646Z 31005KT M06/M11 A3029 RMK A01 T10581109  RH  067%=      5-min Rain = 0
KLE1 120647Z 31005KT M06/M11 A3029 RMK A01 T10581109  RH  067%=      5-min Rain = 0
KLE1 120648Z 31005KT M06/M11 A3029 RMK A01 T10581109  RH  068%=      5-min Rain = 0
KLE1 120649Z 30006KT M06/M11 A3029 RMK A01 T10591109  RH  068%=      5-min Rain = 0
KLE1 120650Z 30006KT M06/M11 A3029 RMK A01 T10591109  RH  068%=      5-min Rain = 0
KLE1 120651Z 30006KT M06/M11 A3029 RMK A01 T10591109  RH  068%=      5-min Rain = 0
KLE1 120652Z 30006KT M06/M11 A3029 RMK A01 T10591108  RH  068%=      5-min Rain = 0
KLE1 120653Z 31006KT M06/M11 A3029 RMK A01 T10581108  RH  068%=      5-min Rain = 0
KLE1 120654Z 31006KT M06/M11 A3029 RMK A01 T10581108  RH  068%=      5-min Rain = 0
KLE1 120655Z 31006KT M06/M11 A3029 RMK A01 T10581108  RH  068%=      5-min Rain = 0
KLE1 120656Z 31006KT M06/M11 A3029 RMK A01 T10581108  RH  068%=      5-min Rain = 0
KLE1 120657Z 31006KT M06/M11 A3029 RMK A01 T10581108  RH  068%=      5-min Rain = 0
KLE1 120658Z 31006KT M06/M11 A3029 RMK A01 T10581108  RH  068%=      5-min Rain = 0
KLE1 120659Z 31007KT M06/M11 A3029 RMK A01 T10581108  RH  068%=      5-min Rain = 0
KLE1 120700Z 31006KT M06/M11 A3029 RMK A01 T10581108  RH  068%=      5-min Rain = 0
KLE1 120701Z 30005KT M06/M11 A3029 RMK A01 T10591108  RH  068%=      5-min Rain = 0
KLE1 120702Z 30005KT M06/M11 A3029 RMK A01 T10601109  RH  068%=      5-min Rain = 0
KLE1 120703Z 29005KT M06/M11 A3029 RMK A01 T10601109  RH  068%=      5-min Rain = 0
KLE1 120704Z 28004KT M06/M11 A3029 RMK A01 T10601108  RH  069%=      5-min Rain = 0
KLE1 120705Z 27004KT M06/M11 A3029 RMK A01 T10611108  RH  069%=      5-min Rain = 0
KLE1 120706Z 27004KT M06/M11 A3029 RMK A01 T10621108  RH  070%=      5-min Rain = 0
KLE1 120707Z 28005KT M06/M11 A3029 RMK A01 T10631110  RH  070%=      5-min Rain = 0
KLE1 120708Z 29006KT M06/M11 A3029 RMK A01 T10641109  RH  070%=      5-min Rain = 0
KLE1 120709Z 29006KT M06/M11 A3029 RMK A01 T10641108  RH  071%=      5-min Rain = 0
KLE1 120710Z 29006KT M06/M11 A3029 RMK A01 T10631106  RH  071%=      5-min Rain = 0
KLE1 120711Z 30005KT M06/M11 A3029 RMK A01 T10621106  RH  071%=      5-min Rain = 0
KLE1 120712Z 30006KT M06/M11 A3029 RMK A01 T10621106  RH  071%=      5-min Rain = 0
KLE1 120713Z 30006KT M06/M11 A3029 RMK A01 T10621106  RH  071%=      5-min Rain = 0
KLE1 120714Z 30006KT M06/M11 A3029 RMK A01 T10621106  RH  071%=      5-min Rain = 0
KLE1 120715Z 30006KT M06/M11 A3029 RMK A01 T10611106  RH  071%=      5-min Rain = 0
KLE1 120716Z 30005KT M06/M11 A3029 RMK A01 T10621106  RH  071%=      5-min Rain = 0
KLE1 120717Z 30005KT M06/M11 A3029 RMK A01 T10621106  RH  071%=      5-min Rain = 0
KLE1 120718Z 30005KT M06/M11 A3029 RMK A01 T10621107  RH  071%=      5-min Rain = 0
KLE1 120719Z 30005KT M06/M11 A3029 RMK A01 T10621106  RH  071%=      5-min Rain = 0
KLE1 120720Z 31005KT M06/M11 A3029 RMK A01 T10611105  RH  071%=      5-min Rain = 0
KLE1 120721Z 31005KT M06/M10 A3029 RMK A01 T10601104  RH  071%=      5-min Rain = 0
KLE1 120722Z 31005KT M06/M10 A3029 RMK A01 T10601104  RH  071%=      5-min Rain = 0
KLE1 120723Z 31005KT M06/M10 A3029 RMK A01 T10601103  RH  071%=      5-min Rain = 0
KLE1 120724Z 31005KT M06/M10 A3029 RMK A01 T10591102  RH  072%=      5-min Rain = 0
KLE1 120725Z 31005KT M06/M10 A3029 RMK A01 T10581101  RH  072%=      5-min Rain = 0
KLE1 120726Z 31005KT M06/M10 A3029 RMK A01 T10581101  RH  072%=      5-min Rain = 0
KLE1 120727Z 32005KT M06/M10 A3029 RMK A01 T10581101  RH  072%=      5-min Rain = 0
KLE1 120728Z 32005KT M06/M10 A3029 RMK A01 T10581101  RH  072%=      5-min Rain = 0
KLE1 120729Z 32005KT M06/M10 A3029 RMK A01 T10581101  RH  072%=      5-min Rain = 0
KLE1 120730Z 32005KT M06/M10 A3029 RMK A01 T10571101  RH  071%=      5-min Rain = 0
KLE1 120731Z 33005KT M06/M10 A3029 RMK A01 T10581102  RH  071%=      5-min Rain = 0
KLE1 120732Z 33004KT M06/M10 A3029 RMK A01 T10571102  RH  071%=      5-min Rain = 0
KLE1 120733Z 33003KT M06/M10 A3029 RMK A01 T10571102  RH  071%=      5-min Rain = 0
KLE1 120734Z 32004KT M06/M10 A3029 RMK A01 T10581102  RH  071%=      5-min Rain = 0
KLE1 120735Z 32004KT M06/M10 A3029 RMK A01 T10561101  RH  071%=      5-min Rain = 0
KLE1 120736Z 32003KT M06/M10 A3029 RMK A01 T10551101  RH  070%=      5-min Rain = 0
KLE1 120737Z 33004KT M06/M10 A3029 RMK A01 T10551102  RH  070%=      5-min Rain = 0
KLE1 120738Z 33004KT M06/M10 A3029 RMK A01 T10551102  RH  070%=      5-min Rain = 0
KLE1 120739Z 35003KT M05/M10 A3029 RMK A01 T10541101  RH  069%=      5-min Rain = 0
KLE1 120740Z 36003KT M05/M10 A3029 RMK A01 T10531101  RH  069%=      5-min Rain = 0
KLE1 120741Z 05003KT M06/M10 A3029 RMK A01 T10551104  RH  068%=      5-min Rain = 0
KLE1 120742Z 01002KT M06/M11 A3029 RMK A01 T10591109  RH  068%=      5-min Rain = 0
KLE1 120743Z 01002KT M06/M11 A3029 RMK A01 T10601107  RH  070%=      5-min Rain = 0
KLE1 120744Z 05002KT M06/M11 A3029 RMK A01 T10601106  RH  070%=      5-min Rain = 0
KLE1 120745Z 04003KT M06/M11 A3029 RMK A01 T10621108  RH  070%=      5-min Rain = 0
KLE1 120746Z 05003KT M06/M11 A3028 RMK A01 T10631109  RH  070%=      5-min Rain = 0
KLE1 120747Z 05004KT M06/M11 A3028 RMK A01 T10631108  RH  070%=      5-min Rain = 0
KLE1 120748Z 06004KT M06/M11 A3028 RMK A01 T10631108  RH  070%=      5-min Rain = 0
KLE1 120749Z 07006KT M06/M11 A3028 RMK A01 T10631109  RH  070%=      5-min Rain = 0
KLE1 120750Z 06005KT M07/M11 A3028 RMK A01 T10651111  RH  070%=      5-min Rain = 0
KLE1 120751Z 07005KT M07/M11 A3028 RMK A01 T10681114  RH  070%=      5-min Rain = 0
KLE1 120752Z 06005KT M07/M12 A3028 RMK A01 T10701115  RH  071%=      5-min Rain = 0
KLE1 120753Z 06006KT M07/M11 A3028 RMK A01 T10711114  RH  072%=      5-min Rain = 0
KLE1 120754Z 07005KT M07/M11 A3028 RMK A01 T10711113  RH  072%=      5-min Rain = 0
KLE1 120755Z 08005KT M07/M11 A3028 RMK A01 T10721113  RH  072%=      5-min Rain = 0
KLE1 120756Z 09005KT M07/M11 A3028 RMK A01 T10731114  RH  072%=      5-min Rain = 0
KLE1 120757Z 08005KT M07/M12 A3028 RMK A01 T10741115  RH  072%=      5-min Rain = 0
KLE1 120758Z 12005KT M07/M12 A3029 RMK A01 T10741115  RH  073%=      5-min Rain = 0
KLE1 120759Z 11004KT M07/M11 A3029 RMK A01 T10741113  RH  074%=      5-min Rain = 0
KLE1 120800Z 09004KT M07/M11 A3029 RMK A01 T10741111  RH  074%=      5-min Rain = 0
KLE1 120801Z 09004KT M07/M11 A3029 RMK A01 T10721108  RH  075%=      5-min Rain = 0
KLE1 120802Z 11005KT M07/M10 A3029 RMK A01 T10681103  RH  076%=      5-min Rain = 0
KLE1 120803Z 11004KT M07/M10 A3029 RMK A01 T10651103  RH  075%=      5-min Rain = 0
KLE1 120804Z 10004KT M06/M10 A3029 RMK A01 T10641104  RH  074%=      5-min Rain = 0
KLE1 120805Z 09003KT M06/M10 A3029 RMK A01 T10631103  RH  073%=      5-min Rain = 0
KLE1 120806Z 08003KT M06/M10 A3029 RMK A01 T10621102  RH  073%=      5-min Rain = 0
KLE1 120807Z 09003KT M06/M10 A3029 RMK A01 T10601099  RH  074%=      5-min Rain = 0
KLE1 120808Z 11003KT M06/M10 A3029 RMK A01 T10581100  RH  072%=      5-min Rain = 0
KLE1 120809Z 10003KT M06/M10 A3029 RMK A01 T10581103  RH  071%=      5-min Rain = 0
KLE1 120810Z 09004KT M06/M10 A3029 RMK A01 T10591103  RH  071%=      5-min Rain = 0
KLE1 120811Z 09003KT M06/M10 A3029 RMK A01 T10581102  RH  071%=      5-min Rain = 0
KLE1 120812Z 08004KT M06/M10 A3029 RMK A01 T10581102  RH  071%=      5-min Rain = 0
KLE1 120813Z 08004KT M06/M10 A3029 RMK A01 T10581103  RH  071%=      5-min Rain = 0
KLE1 120814Z 08004KT M06/M10 A3029 RMK A01 T10571102  RH  071%=      5-min Rain = 0
KLE1 120815Z 07004KT M06/M10 A3029 RMK A01 T10561100  RH  071%=      5-min Rain = 0
KLE1 120816Z 06004KT M06/M10 A3029 RMK A01 T10551098  RH  072%=      5-min Rain = 0
KLE1 120817Z 06004KT M05/M10 A3029 RMK A01 T10531096  RH  072%=      5-min Rain = 0
KLE1 120818Z 06004KT M05/M10 A3029 RMK A01 T10511095  RH  071%=      5-min Rain = 0
KLE1 120819Z 06004KT M05/M09 A3029 RMK A01 T10501094  RH  071%=      5-min Rain = 0
KLE1 120820Z 06004KT M05/M09 A3029 RMK A01 T10481094  RH  070%=      5-min Rain = 0
KLE1 120821Z 06004KT M05/M09 A3029 RMK A01 T10481094  RH  070%=      5-min Rain = 0
KLE1 120822Z 06004KT M05/M10 A3029 RMK A01 T10481095  RH  069%=      5-min Rain = 0
KLE1 120823Z 06004KT M05/M10 A3029 RMK A01 T10471095  RH  069%=      5-min Rain = 0
KLE1 120824Z 06005KT M05/M10 A3029 RMK A01 T10471095  RH  069%=      5-min Rain = 0
KLE1 120825Z 06005KT M05/M10 A3029 RMK A01 T10471095  RH  069%=      5-min Rain = 0
KLE1 120826Z 06005KT M05/M10 A3029 RMK A01 T10471095  RH  069%=      5-min Rain = 0
KLE1 120827Z 06006KT M05/M10 A3029 RMK A01 T10471095  RH  069%=      5-min Rain = 0
KLE1 120828Z 05006KT M05/M10 A3029 RMK A01 T10471095  RH  069%=      5-min Rain = 0
KLE1 120829Z 05005KT M05/M10 A3029 RMK A01 T10471095  RH  069%=      5-min Rain = 0
KLE1 120830Z 05006KT M05/M10 A3029 RMK A01 T10481095  RH  070%=      5-min Rain = 0
KLE1 120831Z 04006KT M05/M09 A3029 RMK A01 T10481094  RH  070%=      5-min Rain = 0
KLE1 120832Z 04005KT M05/M09 A3029 RMK A01 T10481094  RH  070%=      5-min Rain = 0
KLE1 120833Z 04005KT M05/M10 A3029 RMK A01 T10491095  RH  070%=      5-min Rain = 0
KLE1 120834Z 04005KT M05/M10 A3029 RMK A01 T10501096  RH  070%=      5-min Rain = 0
KLE1 120835Z 04005KT M05/M10 A3029 RMK A01 T10501096  RH  070%=      5-min Rain = 0
KLE1 120836Z 04005KT M05/M10 A3029 RMK A01 T10511096  RH  071%=      5-min Rain = 0
KLE1 120837Z 03005KT M05/M10 A303 RMK A01 T10521097  RH  071%=      5-min Rain = 0
KLE1 120838Z 03005KT M05/M10 A303 RMK A01 T10541099  RH  071%=      5-min Rain = 0
KLE1 120839Z 03005KT M06/M10 A303 RMK A01 T10561100  RH  071%=      5-min Rain = 0
KLE1 120840Z 03005KT M06/M10 A3029 RMK A01 T10581102  RH  071%=      5-min Rain = 0
KLE1 120841Z 03005KT M06/M10 A3029 RMK A01 T10601103  RH  072%=      5-min Rain = 0
KLE1 120842Z 03004KT M06/M10 A3029 RMK A01 T10611103  RH  072%=      5-min Rain = 0
KLE1 120843Z 03004KT M06/M10 A3029 RMK A01 T10621102  RH  073%=      5-min Rain = 0
KLE1 120844Z 03004KT M06/M10 A3029 RMK A01 T10621101  RH  074%=      5-min Rain = 0
KLE1 120845Z 03004KT M06/M10 A3029 RMK A01 T10611100  RH  074%=      5-min Rain = 0
KLE1 120846Z 04004KT M06/M10 A3029 RMK A01 T10601099  RH  074%=      5-min Rain = 0
KLE1 120847Z 05003KT M06/M10 A3029 RMK A01 T10591098  RH  074%=      5-min Rain = 0
KLE1 120848Z 05004KT M06/M10 A3029 RMK A01 T10581097  RH  074%=      5-min Rain = 0
KLE1 120849Z 05003KT M06/M10 A3029 RMK A01 T10561095  RH  074%=      5-min Rain = 0
KLE1 120850Z 06003KT M06/M09 A3029 RMK A01 T10551094  RH  074%=      5-min Rain = 0
KLE1 120851Z 06003KT M05/M09 A3028 RMK A01 T10531094  RH  073%=      5-min Rain = 0
KLE1 120852Z 06003KT M05/M09 A3028 RMK A01 T10521093  RH  073%=      5-min Rain = 0
KLE1 120853Z 06003KT M05/M09 A3028 RMK A01 T10511093  RH  072%=      5-min Rain = 0
KLE1 120854Z 06003KT M05/M09 A3028 RMK A01 T10501093  RH  072%=      5-min Rain = 0
KLE1 120855Z 06003KT M05/M09 A3028 RMK A01 T10491093  RH  071%=      5-min Rain = 0
KLE1 120856Z 06003KT M05/M09 A3028 RMK A01 T10491093  RH  071%=      5-min Rain = 0
KLE1 120857Z 05003KT M05/M09 A3028 RMK A01 T10481093  RH  071%=      5-min Rain = 0
KLE1 120858Z 06003KT M05/M09 A3028 RMK A01 T10481093  RH  071%=      5-min Rain = 0
KLE1 120859Z 07003KT M05/M09 A3028 RMK A01 T10481093  RH  071%=      5-min Rain = 0
KLE1 120900Z 08003KT M05/M09 A3028 RMK A01 T10471093  RH  071%=      5-min Rain = 0
KLE1 120901Z 08003KT M05/M09 A3028 RMK A01 T10471092  RH  071%=      5-min Rain = 0
KLE1 120902Z 09002KT M05/M09 A3027 RMK A01 T10471092  RH  071%=      5-min Rain = 0
KLE1 120903Z 09003KT M05/M09 A3027 RMK A01 T10471092  RH  071%=      5-min Rain = 0
KLE1 120904Z 10003KT M05/M09 A3027 RMK A01 T10461091  RH  071%=      5-min Rain = 0
KLE1 120905Z 10003KT M05/M09 A3027 RMK A01 T10451091  RH  070%=      5-min Rain = 0
KLE1 120906Z 09003KT M04/M09 A3027 RMK A01 T10441091  RH  070%=      5-min Rain = 0
KLE1 120907Z 09003KT M04/M09 A3027 RMK A01 T10441090  RH  070%=      5-min Rain = 0
KLE1 120908Z 09003KT M04/M09 A3027 RMK A01 T10431090  RH  070%=      5-min Rain = 0
KLE1 120909Z 10003KT M04/M09 A3027 RMK A01 T10421090  RH  069%=      5-min Rain = 0
KLE1 120910Z 11002KT M04/M09 A3027 RMK A01 T10421090  RH  069%=      5-min Rain = 0
KLE1 120911Z 10003KT M04/M09 A3027 RMK A01 T10421091  RH  069%=      5-min Rain = 0
KLE1 120912Z 11002KT M04/M09 A3027 RMK A01 T10431091  RH  069%=      5-min Rain = 0
KLE1 120913Z 12002KT M04/M09 A3027 RMK A01 T10431092  RH  069%=      5-min Rain = 0
KLE1 120914Z 12002KT M05/M10 A3027 RMK A01 T10461097  RH  067%=      5-min Rain = 0
KLE1 120915Z 12002KT M05/M10 A3027 RMK A01 T10511104  RH  066%=      5-min Rain = 0
KLE1 120916Z 11001KT M06/M11 A3027 RMK A01 T10551105  RH  068%=      5-min Rain = 0
KLE1 120917Z 10002KT M06/M10 A3027 RMK A01 T10571104  RH  069%=      5-min Rain = 0
KLE1 120918Z 10002KT M06/M10 A3027 RMK A01 T10571103  RH  070%=      5-min Rain = 0
KLE1 120919Z 09002KT M06/M10 A3027 RMK A01 T10581102  RH  071%=      5-min Rain = 0
KLE1 120920Z 10002KT M06/M10 A3027 RMK A01 T10581100  RH  072%=      5-min Rain = 0
KLE1 120921Z 10002KT M06/M10 A3027 RMK A01 T10581099  RH  073%=      5-min Rain = 0
KLE1 120922Z 10002KT M06/M10 A3026 RMK A01 T10571097  RH  073%=      5-min Rain = 0
KLE1 120923Z 10002KT M06/M10 A3026 RMK A01 T10561095  RH  074%=      5-min Rain = 0
KLE1 120924Z 11002KT M05/M09 A3026 RMK A01 T10541093  RH  074%=      5-min Rain = 0
KLE1 120925Z 12002KT M05/M09 A3026 RMK A01 T10521092  RH  074%=      5-min Rain = 0
KLE1 120926Z 12002KT M05/M09 A3026 RMK A01 T10501091  RH  073%=      5-min Rain = 0
KLE1 120927Z 12003KT M05/M09 A3026 RMK A01 T10501092  RH  072%=      5-min Rain = 0
KLE1 120928Z 12003KT M05/M09 A3026 RMK A01 T10491092  RH  072%=      5-min Rain = 0
KLE1 120929Z 12003KT M05/M09 A3026 RMK A01 T10481093  RH  071%=      5-min Rain = 0
KLE1 120930Z 12003KT M05/M09 A3026 RMK A01 T10481094  RH  071%=      5-min Rain = 0
KLE1 120931Z 11003KT M05/M10 A3026 RMK A01 T10491095  RH  070%=      5-min Rain = 0
KLE1 120932Z 10002KT M05/M10 A3026 RMK A01 T10501095  RH  071%=      5-min Rain = 0
KLE1 120933Z 10002KT M05/M10 A3026 RMK A01 T10501095  RH  071%=      5-min Rain = 0
KLE1 120934Z 10002KT M05/M10 A3027 RMK A01 T10501095  RH  071%=      5-min Rain = 0
KLE1 120935Z 09002KT M05/M09 A3027 RMK A01 T10501094  RH  071%=      5-min Rain = 0
KLE1 120936Z 09002KT M05/M10 A3027 RMK A01 T10501095  RH  071%=      5-min Rain = 0
KLE1 120937Z 09001KT M05/M10 A3027 RMK A01 T10511096  RH  071%=      5-min Rain = 0
KLE1 120938Z 09001KT M05/M10 A3027 RMK A01 T10511096  RH  071%=      5-min Rain = 0
KLE1 120939Z 08001KT M05/M10 A3027 RMK A01 T10521096  RH  071%=      5-min Rain = 0
KLE1 120940Z 08001KT M05/M10 A3027 RMK A01 T10521096  RH  071%=      5-min Rain = 0
KLE1 120941Z 08001KT M05/M10 A3027 RMK A01 T10521096  RH  071%=      5-min Rain = 0
KLE1 120942Z 08000KT M05/M10 A3026 RMK A01 T10521097  RH  071%=      5-min Rain = 0
KLE1 120943Z 08000KT M05/M10 A3026 RMK A01 T10531097  RH  071%=      5-min Rain = 0
KLE1 120944Z 08001KT M05/M10 A3027 RMK A01 T10541097  RH  072%=      5-min Rain = 0
KLE1 120945Z 08001KT M05/M10 A3027 RMK A01 T10541096  RH  072%=      5-min Rain = 0
KLE1 120946Z 08000KT M05/M10 A3027 RMK A01 T10541096  RH  072%=      5-min Rain = 0
KLE1 120947Z 00000KT M05/M10 A3027 RMK A01 T10541096  RH  072%=      5-min Rain = 0
KLE1 120948Z 00000KT M06/M10 A3027 RMK A01 T10551097  RH  072%=      5-min Rain = 0
KLE1 120949Z 00000KT M06/M10 A3027 RMK A01 T10551097  RH  072%=      5-min Rain = 0
KLE1 120950Z 00000KT M06/M10 A3027 RMK A01 T10561097  RH  073%=      5-min Rain = 0
KLE1 120951Z 00000KT M06/M10 A3027 RMK A01 T10571097  RH  073%=      5-min Rain = 0
KLE1 120952Z 00000KT M06/M10 A3027 RMK A01 T10571096  RH  074%=      5-min Rain = 0
KLE1 120953Z 00000KT M06/M10 A3027 RMK A01 T10571096  RH  074%=      5-min Rain = 0
KLE1 120954Z 00000KT M06/M10 A3027 RMK A01 T10571095  RH  075%=      5-min Rain = 0
KLE1 120955Z 18001KT M06/M10 A3027 RMK A01 T10581095  RH  075%=      5-min Rain = 0
KLE1 120956Z 18001KT M06/M10 A3027 RMK A01 T10581095  RH  075%=      5-min Rain = 0
KLE1 120957Z 24001KT M06/M10 A3027 RMK A01 T10571096  RH  074%=      5-min Rain = 0
KLE1 120958Z 28001KT M06/M10 A3028 RMK A01 T10571097  RH  074%=      5-min Rain = 0
KLE1 120959Z 28001KT M06/M10 A3028 RMK A01 T10591099  RH  073%=      5-min Rain = 0
KLE1 121000Z 25001KT M06/M10 A3028 RMK A01 T10601099  RH  074%=      5-min Rain = 0
KLE1 121001Z 24001KT M06/M10 A3028 RMK A01 T10601099  RH  074%=      5-min Rain = 0
KLE1 121002Z 27001KT M06/M10 A3028 RMK A01 T10601099  RH  074%=      5-min Rain = 0
KLE1 121003Z 28001KT M06/M10 A3028 RMK A01 T10611100  RH  074%=      5-min Rain = 0
KLE1 121004Z 28001KT M06/M10 A3028 RMK A01 T10611100  RH  074%=      5-min Rain = 0
KLE1 121005Z 27002KT M06/M10 A3028 RMK A01 T10621101  RH  074%=      5-min Rain = 0
KLE1 121006Z 26002KT M06/M10 A3028 RMK A01 T10631102  RH  074%=      5-min Rain = 0
KLE1 121007Z 26002KT M06/M10 A3028 RMK A01 T10641103  RH  074%=      5-min Rain = 0
KLE1 121008Z 26001KT M07/M10 A3028 RMK A01 T10651104  RH  074%=      5-min Rain = 0
KLE1 121009Z 26000KT M07/M10 A3028 RMK A01 T10651104  RH  074%=      5-min Rain = 0
KLE1 121010Z 19000KT M07/M10 A3028 RMK A01 T10661104  RH  075%=      5-min Rain = 0
KLE1 121011Z 18001KT M07/M10 A3028 RMK A01 T10661103  RH  075%=      5-min Rain = 0
KLE1 121012Z 20001KT M07/M10 A3028 RMK A01 T10661099  RH  077%=      5-min Rain = 0
KLE1 121013Z 24002KT M07/M09 A3028 RMK A01 T10661091  RH  083%=      5-min Rain = 0
KLE1 121014Z 25003KT M07/M09 A3028 RMK A01 T10651087  RH  084%=      5-min Rain = 0
KLE1 121015Z 25003KT M07/M10 A3028 RMK A01 T10651095  RH  079%=      5-min Rain = 0
KLE1 121016Z 24002KT M07/M10 A3028 RMK A01 T10671102  RH  076%=      5-min Rain = 0
KLE1 121017Z 19001KT M07/M10 A3028 RMK A01 T10671102  RH  076%=      5-min Rain = 0
KLE1 121018Z 16002KT M07/M10 A3027 RMK A01 T10681098  RH  079%=      5-min Rain = 0
KLE1 121019Z 16002KT M07/M09 A3027 RMK A01 T10681092  RH  083%=      5-min Rain = 0
KLE1 121020Z 17002KT M07/M09 A3027 RMK A01 T10681088  RH  086%=      5-min Rain = 0
KLE1 121021Z 18002KT M07/M08 A3028 RMK A01 T10671083  RH  088%=      5-min Rain = 0
KLE1 121022Z 18002KT M07/M08 A3028 RMK A01 T10651081  RH  088%=      5-min Rain = 0
KLE1 121023Z 19002KT M06/M08 A3028 RMK A01 T10641079  RH  089%=      5-min Rain = 0
KLE1 121024Z 18001KT M06/M08 A3028 RMK A01 T10631077  RH  090%=      5-min Rain = 0
KLE1 121025Z 18000KT M06/M08 A3028 RMK A01 T10621077  RH  090%=      5-min Rain = 0
KLE1 121026Z 17000KT M06/M08 A3028 RMK A01 T10621078  RH  089%=      5-min Rain = 0
KLE1 121027Z 17000KT M06/M08 A3028 RMK A01 T10621079  RH  088%=      5-min Rain = 0
KLE1 121028Z 00000KT M06/M08 A3028 RMK A01 T10621079  RH  087%=      5-min Rain = 0
KLE1 121029Z 00000KT M06/M08 A3028 RMK A01 T10621081  RH  086%=      5-min Rain = 0
KLE1 121030Z 17000KT M06/M08 A3028 RMK A01 T10621083  RH  085%=      5-min Rain = 0
KLE1 121031Z 17001KT M06/M09 A3028 RMK A01 T10621087  RH  083%=      5-min Rain = 0
KLE1 121032Z 14001KT M06/M09 A3028 RMK A01 T10621090  RH  081%=      5-min Rain = 0
KLE1 121033Z 12001KT M06/M09 A3028 RMK A01 T10621092  RH  079%=      5-min Rain = 0
KLE1 121034Z 12001KT M06/M09 A3028 RMK A01 T10611092  RH  079%=      5-min Rain = 0
KLE1 121035Z 12000KT M06/M09 A3027 RMK A01 T10601092  RH  078%=      5-min Rain = 0
KLE1 121036Z 00000KT M06/M09 A3027 RMK A01 T10601093  RH  078%=      5-min Rain = 0
KLE1 121037Z 06000KT M06/M09 A3027 RMK A01 T10591094  RH  077%=      5-min Rain = 0
KLE1 121038Z 05001KT M06/M10 A3027 RMK A01 T10601095  RH  076%=      5-min Rain = 0
KLE1 121039Z 06001KT M06/M09 A3027 RMK A01 T10621094  RH  078%=      5-min Rain = 0
KLE1 121040Z 06001KT M06/M09 A3027 RMK A01 T10631094  RH  079%=      5-min Rain = 0
KLE1 121041Z 07001KT M06/M09 A3028 RMK A01 T10641094  RH  079%=      5-min Rain = 0
KLE1 121042Z 07001KT M06/M09 A3028 RMK A01 T10641092  RH  081%=      5-min Rain = 0
KLE1 121043Z 07001KT M06/M09 A3028 RMK A01 T10631088  RH  083%=      5-min Rain = 0
KLE1 121044Z 05001KT M06/M09 A3028 RMK A01 T10621085  RH  084%=      5-min Rain = 0
KLE1 121045Z 02001KT M06/M09 A3028 RMK A01 T10621086  RH  083%=      5-min Rain = 0
KLE1 121046Z 02002KT M06/M09 A3028 RMK A01 T10631089  RH  082%=      5-min Rain = 0
KLE1 121047Z 02002KT M07/M09 A3028 RMK A01 T10651093  RH  081%=      5-min Rain = 0
KLE1 121048Z 02002KT M07/M10 A3028 RMK A01 T10671096  RH  080%=      5-min Rain = 0
KLE1 121049Z 02002KT M07/M10 A3028 RMK A01 T10691103  RH  077%=      5-min Rain = 0
KLE1 121050Z 02002KT M07/M11 A3028 RMK A01 T10731110  RH  075%=      5-min Rain = 0
KLE1 121051Z 02002KT M08/M11 A3028 RMK A01 T10771113  RH  075%=      5-min Rain = 0
KLE1 121052Z 02002KT M08/M11 A3028 RMK A01 T10781112  RH  077%=      5-min Rain = 0
KLE1 121053Z 02002KT M08/M11 A3027 RMK A01 T10781111  RH  077%=      5-min Rain = 0
KLE1 121054Z 02002KT M08/M11 A3027 RMK A01 T10791112  RH  077%=      5-min Rain = 0
KLE1 121055Z 03002KT M08/M11 A3027 RMK A01 T10801113  RH  077%=      5-min Rain = 0
KLE1 121056Z 04002KT M08/M11 A3027 RMK A01 T10801111  RH  078%=      5-min Rain = 0
KLE1 121057Z 04002KT M08/M11 A3028 RMK A01 T10791110  RH  078%=      5-min Rain = 0
KLE1 121058Z 04002KT M08/M11 A3028 RMK A01 T10791110  RH  079%=      5-min Rain = 0
KLE1 121059Z 04002KT M08/M11 A3028 RMK A01 T10781108  RH  079%=      5-min Rain = 0
KLE1 121100Z 04001KT M08/M11 A3028 RMK A01 T10781108  RH  079%=      5-min Rain = 0
KLE1 121101Z 05002KT M08/M11 A3028 RMK A01 T10771106  RH  080%=      5-min Rain = 0
KLE1 121102Z 06002KT M08/M10 A3028 RMK A01 T10751104  RH  080%=      5-min Rain = 0
KLE1 121103Z 05002KT M07/M10 A3028 RMK A01 T10741102  RH  080%=      5-min Rain = 0
KLE1 121104Z 05002KT M07/M10 A3028 RMK A01 T10731101  RH  080%=      5-min Rain = 0
KLE1 121105Z 05002KT M07/M10 A3028 RMK A01 T10711101  RH  079%=      5-min Rain = 0
KLE1 121106Z 05002KT M07/M10 A3028 RMK A01 T10711102  RH  079%=      5-min Rain = 0
KLE1 121107Z 05002KT M07/M10 A3028 RMK A01 T10711101  RH  079%=      5-min Rain = 0
KLE1 121108Z 05002KT M07/M10 A3028 RMK A01 T10701100  RH  080%=      5-min Rain = 0
KLE1 121109Z 05001KT M07/M10 A3028 RMK A01 T10681097  RH  080%=      5-min Rain = 0
KLE1 121110Z 05001KT M07/M10 A3028 RMK A01 T10661095  RH  080%=      5-min Rain = 0
KLE1 121111Z 05001KT M07/M10 A3028 RMK A01 T10651095  RH  079%=      5-min Rain = 0
KLE1 121112Z 05002KT M06/M10 A3028 RMK A01 T10641095  RH  078%=      5-min Rain = 0
KLE1 121113Z 05001KT M06/M10 A3028 RMK A01 T10631096  RH  077%=      5-min Rain = 0
KLE1 121114Z 05001KT M06/M10 A3028 RMK A01 T10631097  RH  077%=      5-min Rain = 0
KLE1 121115Z 05001KT M06/M10 A3028 RMK A01 T10631097  RH  077%=      5-min Rain = 0
KLE1 121116Z 05001KT M06/M10 A3028 RMK A01 T10621097  RH  076%=      5-min Rain = 0
KLE1 121117Z 05001KT M06/M10 A3028 RMK A01 T10621098  RH  076%=      5-min Rain = 0
KLE1 121118Z 05001KT M06/M10 A3028 RMK A01 T10621098  RH  076%=      5-min Rain = 0
KLE1 121119Z 05000KT M06/M10 A3028 RMK A01 T10621097  RH  076%=      5-min Rain = 0
KLE1 121120Z 00000KT M06/M10 A3028 RMK A01 T10611097  RH  076%=      5-min Rain = 0
KLE1 121121Z 16000KT M06/M10 A3028 RMK A01 T10611097  RH  076%=      5-min Rain = 0
KLE1 121122Z 17001KT M06/M10 A3028 RMK A01 T10611097  RH  076%=      5-min Rain = 0
KLE1 121123Z 17000KT M06/M10 A3028 RMK A01 T10611097  RH  075%=      5-min Rain = 0
KLE1 121124Z 17000KT M06/M10 A3028 RMK A01 T10601097  RH  075%=      5-min Rain = 0
KLE1 121125Z 18001KT M06/M10 A3028 RMK A01 T10601096  RH  075%=      5-min Rain = 0
KLE1 121126Z 19001KT M06/M10 A3028 RMK A01 T10591096  RH  075%=      5-min Rain = 0
KLE1 121127Z 19001KT M06/M10 A3028 RMK A01 T10591096  RH  075%=      5-min Rain = 0
KLE1 121128Z 22001KT M06/M10 A3028 RMK A01 T10591096  RH  075%=      5-min Rain = 0
KLE1 121129Z 25001KT M06/M10 A3028 RMK A01 T10591097  RH  075%=      5-min Rain = 0
KLE1 121130Z 28001KT M06/M10 A3028 RMK A01 T10611100  RH  074%=      5-min Rain = 0
KLE1 121131Z 28000KT M07/M11 A3028 RMK A01 T10651106  RH  073%=      5-min Rain = 0
KLE1 121132Z 00000KT M07/M11 A3028 RMK A01 T10701113  RH  072%=      5-min Rain = 0
KLE1 121133Z 00000KT M07/M11 A3028 RMK A01 T10731114  RH  073%=      5-min Rain = 0
KLE1 121134Z 00000KT M08/M11 A3028 RMK A01 T10751111  RH  075%=      5-min Rain = 0
KLE1 121135Z 28000KT M08/M11 A3029 RMK A01 T10751109  RH  077%=      5-min Rain = 0
KLE1 121136Z 28002KT M08/M11 A3029 RMK A01 T10751108  RH  078%=      5-min Rain = 0
KLE1 121137Z 27003KT M08/M11 A3029 RMK A01 T10771111  RH  076%=      5-min Rain = 0
KLE1 121138Z 26003KT M08/M12 A3029 RMK A01 T10791115  RH  076%=      5-min Rain = 0
KLE1 121139Z 27002KT M08/M12 A3029 RMK A01 T10821118  RH  075%=      5-min Rain = 0
KLE1 121140Z 27001KT M08/M12 A3029 RMK A01 T10841119  RH  076%=      5-min Rain = 0
KLE1 121141Z 27001KT M09/M12 A3029 RMK A01 T10861120  RH  076%=      5-min Rain = 0
KLE1 121142Z 26002KT M09/M12 A3029 RMK A01 T10861120  RH  076%=      5-min Rain = 0
KLE1 121143Z 25004KT M09/M12 A3029 RMK A01 T10861119  RH  077%=      5-min Rain = 0
KLE1 121144Z 25003KT M09/M12 A3029 RMK A01 T10871118  RH  078%=      5-min Rain = 0
KLE1 121145Z 25002KT M09/M12 A3029 RMK A01 T10871117  RH  079%=      5-min Rain = 0
KLE1 121146Z 25001KT M09/M12 A3029 RMK A01 T10871116  RH  079%=      5-min Rain = 0
KLE1 121147Z 25001KT M09/M12 A3029 RMK A01 T10871115  RH  080%=      5-min Rain = 0
KLE1 121148Z 25002KT M09/M11 A3029 RMK A01 T10861114  RH  080%=      5-min Rain = 0
KLE1 121149Z 25002KT M09/M12 A3029 RMK A01 T10861115  RH  079%=      5-min Rain = 0
KLE1 121150Z 25003KT M09/M12 A3029 RMK A01 T10851115  RH  079%=      5-min Rain = 0
KLE1 121151Z 24003KT M09/M12 A3029 RMK A01 T10851115  RH  079%=      5-min Rain = 0
KLE1 121152Z 23003KT M09/M11 A3029 RMK A01 T10851114  RH  080%=      5-min Rain = 0
KLE1 121153Z 22002KT M09/M11 A3029 RMK A01 T10851113  RH  081%=      5-min Rain = 0
KLE1 121154Z 20003KT M09/M11 A3029 RMK A01 T10851111  RH  081%=      5-min Rain = 0
KLE1 121155Z 20003KT M08/M11 A3029 RMK A01 T10841110  RH  081%=      5-min Rain = 0
KLE1 121156Z 20003KT M08/M11 A3029 RMK A01 T10831110  RH  081%=      5-min Rain = 0
KLE1 121157Z 20003KT M08/M11 A3029 RMK A01 T10821110  RH  081%=      5-min Rain = 0
KLE1 121158Z 19002KT M08/M11 A3029 RMK A01 T10821109  RH  081%=      5-min Rain = 0
KLE1 121159Z 19002KT M08/M11 A3029 RMK A01 T10811109  RH  080%=      5-min Rain = 0
KLE1 121200Z 19002KT M08/M11 A3029 RMK A01 T10811109  RH  080%=      5-min Rain = 0
KLE1 121201Z 18002KT M08/M11 A3029 RMK A01 T10801110  RH  080%=      5-min Rain = 0
KLE1 121202Z 17002KT M08/M11 A3029 RMK A01 T10801110  RH  079%=      5-min Rain = 0
KLE1 121203Z 16002KT M08/M11 A3029 RMK A01 T10801110  RH  079%=      5-min Rain = 0
KLE1 121204Z 15002KT M08/M11 A3029 RMK A01 T10801109  RH  079%=      5-min Rain = 0
KLE1 121205Z 16002KT M08/M11 A3029 RMK A01 T10781107  RH  080%=      5-min Rain = 0
KLE1 121206Z 17001KT M08/M11 A3029 RMK A01 T10771105  RH  080%=      5-min Rain = 0
KLE1 121207Z 17002KT M08/M11 A3029 RMK A01 T10761105  RH  080%=      5-min Rain = 0
KLE1 121208Z 17002KT M08/M10 A3029 RMK A01 T10751103  RH  080%=      5-min Rain = 0
KLE1 121209Z 15002KT M07/M10 A3028 RMK A01 T10741103  RH  080%=      5-min Rain = 0
KLE1 121210Z 14002KT M07/M10 A3028 RMK A01 T10731102  RH  080%=      5-min Rain = 0
KLE1 121211Z 14002KT M07/M10 A3028 RMK A01 T10731103  RH  079%=      5-min Rain = 0
KLE1 121212Z 15002KT M08/M11 A3029 RMK A01 T10751110  RH  076%=      5-min Rain = 0
KLE1 121213Z 17002KT M08/M11 A3029 RMK A01 T10761110  RH  077%=      5-min Rain = 0
KLE1 121214Z 18002KT M08/M11 A3029 RMK A01 T10771109  RH  078%=      5-min Rain = 0
KLE1 121215Z 19002KT M08/M11 A3029 RMK A01 T10771109  RH  078%=      5-min Rain = 0
KLE1 121216Z 19002KT M08/M11 A3029 RMK A01 T10781108  RH  079%=      5-min Rain = 0
KLE1 121217Z 18002KT M08/M11 A3029 RMK A01 T10781108  RH  079%=      5-min Rain = 0
KLE1 121218Z 18002KT M08/M11 A3029 RMK A01 T10781107  RH  079%=      5-min Rain = 0
KLE1 121219Z 19002KT M08/M11 A3029 RMK A01 T10781107  RH  079%=      5-min Rain = 0
KLE1 121220Z 22002KT M08/M11 A3029 RMK A01 T10781108  RH  079%=      5-min Rain = 0
KLE1 121221Z 23002KT M08/M11 A3029 RMK A01 T10791110  RH  078%=      5-min Rain = 0
KLE1 121222Z 23002KT M08/M11 A3029 RMK A01 T10811111  RH  079%=      5-min Rain = 0
KLE1 121223Z 24002KT M08/M11 A3029 RMK A01 T10821111  RH  079%=      5-min Rain = 0
KLE1 121224Z 24003KT M08/M11 A3029 RMK A01 T10831112  RH  080%=      5-min Rain = 0
KLE1 121225Z 26002KT M08/M11 A3029 RMK A01 T10831113  RH  079%=      5-min Rain = 0
KLE1 121226Z 27001KT M09/M12 A3029 RMK A01 T10861117  RH  078%=      5-min Rain = 0
KLE1 121227Z 23002KT M09/M12 A3029 RMK A01 T10881119  RH  078%=      5-min Rain = 0
KLE1 121228Z 23003KT M09/M12 A3029 RMK A01 T10881118  RH  079%=      5-min Rain = 0
KLE1 121229Z 23003KT M09/M12 A3029 RMK A01 T10891118  RH  080%=      5-min Rain = 0
KLE1 121230Z 24003KT M09/M12 A3029 RMK A01 T10881115  RH  081%=      5-min Rain = 0
KLE1 121231Z 23003KT M09/M11 A3029 RMK A01 T10871112  RH  082%=      5-min Rain = 0
KLE1 121232Z 23002KT M09/M11 A3029 RMK A01 T10861112  RH  082%=      5-min Rain = 0
KLE1 121233Z 24002KT M09/M11 A3029 RMK A01 T10851110  RH  082%=      5-min Rain = 0
KLE1 121234Z 27002KT M08/M11 A3029 RMK A01 T10841109  RH  082%=      5-min Rain = 0
KLE1 121235Z 27002KT M08/M11 A3029 RMK A01 T10841111  RH  081%=      5-min Rain = 0
KLE1 121236Z 27002KT M09/M11 A3029 RMK A01 T10851113  RH  080%=      5-min Rain = 0
KLE1 121237Z 26002KT M09/M12 A3029 RMK A01 T10861116  RH  079%=      5-min Rain = 0
KLE1 121238Z 25002KT M09/M12 A3029 RMK A01 T10871119  RH  078%=      5-min Rain = 0
KLE1 121239Z 25001KT M09/M12 A3029 RMK A01 T10881118  RH  079%=      5-min Rain = 0
KLE1 121240Z 25002KT M09/M12 A3029 RMK A01 T10881117  RH  080%=      5-min Rain = 0
KLE1 121241Z 26002KT M09/M12 A3029 RMK A01 T10881116  RH  080%=      5-min Rain = 0
KLE1 121242Z 26002KT M09/M11 A3029 RMK A01 T10871114  RH  081%=      5-min Rain = 0
KLE1 121243Z 27002KT M09/M11 A3029 RMK A01 T10861113  RH  081%=      5-min Rain = 0
KLE1 121244Z 28002KT M09/M11 A3029 RMK A01 T10851113  RH  081%=      5-min Rain = 0
KLE1 121245Z 27001KT M09/M12 A3029 RMK A01 T10851115  RH  079%=      5-min Rain = 0
KLE1 121246Z 26002KT M09/M12 A3029 RMK A01 T10861116  RH  079%=      5-min Rain = 0
KLE1 121247Z 26002KT M09/M12 A3028 RMK A01 T10861116  RH  079%=      5-min Rain = 0
KLE1 121248Z 26003KT M09/M12 A3028 RMK A01 T10861116  RH  079%=      5-min Rain = 0
KLE1 121249Z 26002KT M09/M12 A3028 RMK A01 T10861115  RH  080%=      5-min Rain = 0
KLE1 121250Z 23002KT M09/M12 A3028 RMK A01 T10861115  RH  080%=      5-min Rain = 0
KLE1 121251Z 21002KT M09/M12 A3028 RMK A01 T10861115  RH  080%=      5-min Rain = 0
KLE1 121252Z 20002KT M09/M12 A3028 RMK A01 T10861115  RH  080%=      5-min Rain = 0
KLE1 121253Z 21003KT M09/M12 A3028 RMK A01 T10861115  RH  080%=      5-min Rain = 0
KLE1 121254Z 22003KT M08/M11 A3028 RMK A01 T10841112  RH  081%=      5-min Rain = 0
KLE1 121255Z 23003KT M08/M11 A3029 RMK A01 T10821109  RH  081%=      5-min Rain = 0
KLE1 121256Z 25003KT M08/M11 A3029 RMK A01 T10811109  RH  081%=      5-min Rain = 0
KLE1 121257Z 24003KT M08/M11 A3029 RMK A01 T10811110  RH  079%=      5-min Rain = 0
KLE1 121258Z 24003KT M08/M11 A3029 RMK A01 T10811112  RH  078%=      5-min Rain = 0
KLE1 121259Z 25002KT M08/M12 A3029 RMK A01 T10821115  RH  077%=      5-min Rain = 0
KLE1 121300Z 25002KT M08/M12 A3029 RMK A01 T10841117  RH  077%=      5-min Rain = 0
KLE1 121301Z 25002KT M09/M12 A3029 RMK A01 T10851116  RH  078%=      5-min Rain = 0
KLE1 121302Z 25002KT M09/M11 A3029 RMK A01 T10851112  RH  081%=      5-min Rain = 0
KLE1 121303Z 24002KT M09/M11 A3029 RMK A01 T10851109  RH  083%=      5-min Rain = 0
KLE1 121304Z 23003KT M09/M11 A3029 RMK A01 T10851107  RH  084%=      5-min Rain = 0
KLE1 121305Z 22003KT M08/M11 A3029 RMK A01 T10841105  RH  085%=      5-min Rain = 0
KLE1 121306Z 22003KT M08/M10 A3029 RMK A01 T10831103  RH  085%=      5-min Rain = 0
KLE1 121307Z 22003KT M08/M10 A3029 RMK A01 T10821102  RH  086%=      5-min Rain = 0
KLE1 121308Z 22003KT M08/M10 A3029 RMK A01 T10811102  RH  085%=      5-min Rain = 0
KLE1 121309Z 22002KT M08/M10 A3029 RMK A01 T10801102  RH  084%=      5-min Rain = 0
KLE1 121310Z 22003KT M08/M10 A3029 RMK A01 T10801103  RH  083%=      5-min Rain = 0
KLE1 121311Z 23002KT M08/M10 A3029 RMK A01 T10791104  RH  083%=      5-min Rain = 0
KLE1 121312Z 23003KT M08/M10 A3029 RMK A01 T10791104  RH  082%=      5-min Rain = 0
KLE1 121313Z 23003KT M08/M11 A3029 RMK A01 T10791105  RH  082%=      5-min Rain = 0
KLE1 121314Z 23003KT M08/M11 A3029 RMK A01 T10801105  RH  082%=      5-min Rain = 0
KLE1 121315Z 23003KT M08/M10 A3029 RMK A01 T10791104  RH  082%=      5-min Rain = 0
KLE1 121316Z 23003KT M08/M11 A3029 RMK A01 T10801105  RH  082%=      5-min Rain = 0
KLE1 121317Z 22002KT M08/M11 A3029 RMK A01 T10801106  RH  082%=      5-min Rain = 0
KLE1 121318Z 21002KT M08/M11 A3029 RMK A01 T10801106  RH  082%=      5-min Rain = 0
KLE1 121319Z 21003KT M08/M11 A3029 RMK A01 T10801107  RH  081%=      5-min Rain = 0
KLE1 121320Z 21003KT M08/M11 A3029 RMK A01 T10811107  RH  082%=      5-min Rain = 0
KLE1 121321Z 20003KT M08/M11 A3029 RMK A01 T10811106  RH  082%=      5-min Rain = 0
KLE1 121322Z 20003KT M08/M11 A3028 RMK A01 T10811106  RH  082%=      5-min Rain = 0
KLE1 121323Z 19002KT M08/M11 A3028 RMK A01 T10811107  RH  082%=      5-min Rain = 0
KLE1 121324Z 18002KT M08/M11 A3028 RMK A01 T10811107  RH  082%=      5-min Rain = 0
KLE1 121325Z 17002KT M08/M11 A3028 RMK A01 T10811107  RH  082%=      5-min Rain = 0
KLE1 121326Z 17002KT M08/M11 A3028 RMK A01 T10811107  RH  082%=      5-min Rain = 0
KLE1 121327Z 17001KT M08/M11 A3029 RMK A01 T10801107  RH  081%=      5-min Rain = 0
KLE1 121328Z 18001KT M08/M11 A3029 RMK A01 T10801107  RH  081%=      5-min Rain = 0
KLE1 121329Z 19001KT M08/M11 A3029 RMK A01 T10811108  RH  081%=      5-min Rain = 0
KLE1 121330Z 23001KT M08/M11 A3029 RMK A01 T10821109  RH  081%=      5-min Rain = 0
KLE1 121331Z 23001KT M08/M11 A3029 RMK A01 T10821109  RH  081%=      5-min Rain = 0
KLE1 121332Z 23000KT M08/M11 A3029 RMK A01 T10821109  RH  081%=      5-min Rain = 0
KLE1 121333Z 00000KT M08/M11 A3029 RMK A01 T10821108  RH  081%=      5-min Rain = 0
KLE1 121334Z 28000KT M08/M11 A3029 RMK A01 T10811107  RH  082%=      5-min Rain = 0
KLE1 121335Z 28001KT M08/M11 A3029 RMK A01 T10811107  RH  082%=      5-min Rain = 0
KLE1 121336Z 29001KT M08/M11 A3029 RMK A01 T10811108  RH  081%=      5-min Rain = 0
KLE1 121337Z 29001KT M08/M11 A3029 RMK A01 T10821112  RH  079%=      5-min Rain = 0
KLE1 121338Z 30000KT M08/M11 A303 RMK A01 T10831113  RH  079%=      5-min Rain = 0
KLE1 121339Z 30000KT M08/M11 A303 RMK A01 T10831111  RH  081%=      5-min Rain = 0
KLE1 121340Z 31001KT M08/M11 A303 RMK A01 T10821109  RH  081%=      5-min Rain = 0
KLE1 121341Z 32002KT M08/M11 A303 RMK A01 T10841114  RH  079%=      5-min Rain = 0
KLE1 121342Z 32002KT M09/M12 A303 RMK A01 T10881120  RH  078%=      5-min Rain = 0
KLE1 121343Z 32002KT M09/M12 A303 RMK A01 T10911123  RH  078%=      5-min Rain = 0
KLE1 121344Z 31002KT M09/M12 A303 RMK A01 T10931123  RH  079%=      5-min Rain = 0
KLE1 121345Z 32002KT M09/M12 A303 RMK A01 T10921119  RH  081%=      5-min Rain = 0
KLE1 121346Z 32001KT M09/M11 A303 RMK A01 T10891113  RH  083%=      5-min Rain = 0
KLE1 121347Z 34001KT M09/M11 A303 RMK A01 T10871109  RH  084%=      5-min Rain = 0
KLE1 121348Z 35001KT M08/M11 A303 RMK A01 T10841107  RH  084%=      5-min Rain = 0
KLE1 121349Z 01001KT M08/M11 A303 RMK A01 T10841108  RH  082%=      5-min Rain = 0
KLE1 121350Z 01000KT M08/M11 A303 RMK A01 T10831109  RH  082%=      5-min Rain = 0
KLE1 121351Z 00000KT M08/M11 A303 RMK A01 T10841109  RH  082%=      5-min Rain = 0
KLE1 121352Z 00000KT M08/M11 A303 RMK A01 T10821107  RH  082%=      5-min Rain = 0
KLE1 121353Z 00000KT M08/M11 A303 RMK A01 T10801105  RH  082%=      5-min Rain = 0
KLE1 121354Z 00000KT M08/M11 A303 RMK A01 T10791105  RH  082%=      5-min Rain = 0
KLE1 121355Z 00000KT M08/M11 A303 RMK A01 T10781105  RH  081%=      5-min Rain = 0
KLE1 121356Z 00000KT M08/M11 A303 RMK A01 T10771105  RH  081%=      5-min Rain = 0
KLE1 121357Z 00000KT M08/M10 A303 RMK A01 T10761104  RH  080%=      5-min Rain = 0
KLE1 121358Z 00000KT M08/M11 A303 RMK A01 T10761105  RH  080%=      5-min Rain = 0
KLE1 121359Z 00000KT M08/M11 A303 RMK A01 T10751105  RH  079%=      5-min Rain = 0
KLE1 121400Z 00000KT M08/M11 A3031 RMK A01 T10751105  RH  079%=      5-min Rain = 0
KLE1 121401Z 29000KT M07/M11 A3031 RMK A01 T10741105  RH  079%=      5-min Rain = 0
KLE1 121402Z 29000KT M07/M11 A3031 RMK A01 T10741105  RH  078%=      5-min Rain = 0
KLE1 121403Z 00000KT M07/M11 A3031 RMK A01 T10731105  RH  078%=      5-min Rain = 0
KLE1 121404Z 00000KT M07/M11 A3031 RMK A01 T10731106  RH  078%=      5-min Rain = 0
KLE1 121405Z 29000KT M07/M11 A3031 RMK A01 T10731106  RH  077%=      5-min Rain = 0
KLE1 121406Z 29000KT M07/M11 A3031 RMK A01 T10741106  RH  077%=      5-min Rain = 0
KLE1 121407Z 29000KT M07/M11 A3031 RMK A01 T10731106  RH  078%=      5-min Rain = 0
KLE1 121408Z 29000KT M07/M11 A3031 RMK A01 T10731105  RH  078%=      5-min Rain = 0
KLE1 121409Z 00000KT M07/M11 A3031 RMK A01 T10731105  RH  077%=      5-min Rain = 0
KLE1 121410Z 00000KT M07/M11 A3031 RMK A01 T10721105  RH  077%=      5-min Rain = 0
KLE1 121411Z 00000KT M07/M11 A3031 RMK A01 T10711105  RH  077%=      5-min Rain = 0
KLE1 121412Z 00000KT M07/M11 A3031 RMK A01 T10721105  RH  077%=      5-min Rain = 0
KLE1 121413Z 00000KT M07/M11 A3031 RMK A01 T10711105  RH  077%=      5-min Rain = 0
KLE1 121414Z 29000KT M07/M11 A3031 RMK A01 T10711105  RH  077%=      5-min Rain = 0
KLE1 121415Z 15001KT M07/M10 A3031 RMK A01 T10701104  RH  076%=      5-min Rain = 0
KLE1 121416Z 15001KT M07/M10 A3031 RMK A01 T10691104  RH  076%=      5-min Rain = 0
KLE1 121417Z 14000KT M07/M10 A3031 RMK A01 T10691104  RH  076%=      5-min Rain = 0
KLE1 121418Z 09001KT M07/M11 A3031 RMK A01 T10681105  RH  075%=      5-min Rain = 0
KLE1 121419Z 09001KT M07/M11 A3031 RMK A01 T10681105  RH  075%=      5-min Rain = 0
KLE1 121420Z 09001KT M07/M11 A3031 RMK A01 T10691105  RH  075%=      5-min Rain = 0
KLE1 121421Z 08001KT M07/M11 A3031 RMK A01 T10691105  RH  076%=      5-min Rain = 0
KLE1 121422Z 08002KT M07/M11 A3031 RMK A01 T10701105  RH  076%=      5-min Rain = 0
KLE1 121423Z 07002KT M07/M11 A3031 RMK A01 T10711106  RH  076%=      5-min Rain = 0
KLE1 121424Z 07003KT M07/M11 A3031 RMK A01 T10721107  RH  076%=      5-min Rain = 0
KLE1 121425Z 07002KT M07/M11 A3031 RMK A01 T10721108  RH  076%=      5-min Rain = 0
KLE1 121426Z 08002KT M07/M11 A3031 RMK A01 T10731109  RH  076%=      5-min Rain = 0
KLE1 121427Z 08003KT M07/M11 A3031 RMK A01 T10741109  RH  076%=      5-min Rain = 0
KLE1 121428Z 08003KT M07/M11 A3031 RMK A01 T10741109  RH  076%=      5-min Rain = 0
KLE1 121429Z 09003KT M07/M11 A3031 RMK A01 T10741110  RH  075%=      5-min Rain = 0
KLE1 121430Z 09003KT M08/M11 A3031 RMK A01 T10751111  RH  076%=      5-min Rain = 0
KLE1 121431Z 10003KT M08/M11 A3031 RMK A01 T10751110  RH  076%=      5-min Rain = 0
KLE1 121432Z 10003KT M07/M11 A3031 RMK A01 T10741109  RH  076%=      5-min Rain = 0
KLE1 121433Z 10003KT M07/M11 A3031 RMK A01 T10741108  RH  077%=      5-min Rain = 0
KLE1 121434Z 10004KT M07/M11 A3031 RMK A01 T10741109  RH  076%=      5-min Rain = 0
KLE1 121435Z 10004KT M07/M11 A3031 RMK A01 T10731108  RH  076%=      5-min Rain = 0
KLE1 121436Z 10004KT M07/M11 A3031 RMK A01 T10731109  RH  076%=      5-min Rain = 0
KLE1 121437Z 09003KT M07/M11 A3031 RMK A01 T10731109  RH  075%=      5-min Rain = 0
KLE1 121438Z 10003KT M07/M11 A3031 RMK A01 T10731110  RH  075%=      5-min Rain = 0
KLE1 121439Z 10003KT M07/M11 A3032 RMK A01 T10731109  RH  076%=      5-min Rain = 0
KLE1 121440Z 09003KT M07/M11 A3032 RMK A01 T10721108  RH  076%=      5-min Rain = 0
KLE1 121441Z 10004KT M07/M11 A3031 RMK A01 T10721107  RH  076%=      5-min Rain = 0
KLE1 121442Z 10004KT M07/M11 A3031 RMK A01 T10711108  RH  075%=      5-min Rain = 0
KLE1 121443Z 10004KT M07/M11 A3031 RMK A01 T10711108  RH  075%=      5-min Rain = 0
KLE1 121444Z 11004KT M07/M11 A3031 RMK A01 T10711109  RH  074%=      5-min Rain = 0
KLE1 121445Z 10004KT M07/M11 A3031 RMK A01 T10711110  RH  073%=      5-min Rain = 0
KLE1 121446Z 11004KT M07/M11 A3031 RMK A01 T10701111  RH  073%=      5-min Rain = 0
KLE1 121447Z 11004KT M07/M11 A3031 RMK A01 T10701111  RH  073%=      5-min Rain = 0
KLE1 121448Z 11004KT M07/M11 A3031 RMK A01 T10701110  RH  073%=      5-min Rain = 0
KLE1 121449Z 11004KT M07/M11 A3031 RMK A01 T10701110  RH  073%=      5-min Rain = 0
KLE1 121450Z 11003KT M07/M11 A3031 RMK A01 T10691110  RH  073%=      5-min Rain = 0
KLE1 121451Z 10004KT M07/M11 A3031 RMK A01 T10681109  RH  073%=      5-min Rain = 0
KLE1 121452Z 10004KT M07/M11 A3031 RMK A01 T10681108  RH  073%=      5-min Rain = 0
KLE1 121453Z 10003KT M07/M11 A3031 RMK A01 T10671107  RH  073%=      5-min Rain = 0
KLE1 121454Z 10003KT M07/M11 A3031 RMK A01 T10671109  RH  072%=      5-min Rain = 0
KLE1 121455Z 10004KT M07/M11 A3031 RMK A01 T10671109  RH  072%=      5-min Rain = 0
KLE1 121456Z 11004KT M07/M11 A3031 RMK A01 T10661108  RH  072%=      5-min Rain = 0
KLE1 121457Z 11004KT M07/M11 A3031 RMK A01 T10651107  RH  072%=      5-min Rain = 0
KLE1 121458Z 12003KT M06/M11 A3031 RMK A01 T10641106  RH  072%=      5-min Rain = 0
KLE1 121459Z 11004KT M06/M11 A3031 RMK A01 T10631105  RH  072%=      5-min Rain = 0
KLE1 121500Z 12004KT M06/M11 A3031 RMK A01 T10621106  RH  071%=      5-min Rain = 0
KLE1 121501Z 12005KT M06/M10 A3031 RMK A01 T10611104  RH  072%=      5-min Rain = 0
KLE1 121502Z 13005KT M06/M10 A3031 RMK A01 T10601102  RH  072%=      5-min Rain = 0
KLE1 121503Z 12005KT M06/M10 A3031 RMK A01 T10591101  RH  072%=      5-min Rain = 0
KLE1 121504Z 13004KT M06/M10 A3031 RMK A01 T10571098  RH  073%=      5-min Rain = 0
KLE1 121505Z 12005KT M06/M10 A3031 RMK A01 T10551096  RH  073%=      5-min Rain = 0
KLE1 121506Z 11006KT M05/M10 A3031 RMK A01 T10531096  RH  072%=      5-min Rain = 0
KLE1 121507Z 12006KT M05/M10 A3031 RMK A01 T10521098  RH  070%=      5-min Rain = 0
KLE1 121508Z 12006KT M05/M10 A3031 RMK A01 T10521099  RH  069%=      5-min Rain = 0
KLE1 121509Z 12005KT M05/M10 A3031 RMK A01 T10511100  RH  069%=      5-min Rain = 0
KLE1 121510Z 12006KT M05/M10 A3031 RMK A01 T10501099  RH  068%=      5-min Rain = 0
KLE1 121511Z 12006KT M05/M10 A3031 RMK A01 T10491099  RH  068%=      5-min Rain = 0
KLE1 121512Z 12006KT M05/M10 A3031 RMK A01 T10471098  RH  068%=      5-min Rain = 0
KLE1 121513Z 13006KT M05/M10 A3031 RMK A01 T10471100  RH  066%=      5-min Rain = 0
KLE1 121514Z 13006KT M05/M10 A3031 RMK A01 T10461100  RH  066%=      5-min Rain = 0
KLE1 121515Z 11006KT M05/M10 A3031 RMK A01 T10451100  RH  065%=      5-min Rain = 0
KLE1 121516Z 11006KT M05/M10 A3032 RMK A01 T10451101  RH  065%=      5-min Rain = 0
KLE1 121517Z 12006KT M05/M10 A3032 RMK A01 T10451102  RH  064%=      5-min Rain = 0
KLE1 121518Z 12007KT M05/M10 A3032 RMK A01 T10451103  RH  064%=      5-min Rain = 0
KLE1 121519Z 12007KT M04/M11 A3032 RMK A01 T10441105  RH  063%=      5-min Rain = 0
KLE1 121520Z 12008KT M04/M11 A3032 RMK A01 T10441106  RH  062%=      5-min Rain = 0
KLE1 121521Z 13008KT M04/M11 A3032 RMK A01 T10441105  RH  062%=      5-min Rain = 0
KLE1 121522Z 12008KT M04/M11 A3032 RMK A01 T10441106  RH  062%=      5-min Rain = 0
KLE1 121523Z 12008KT M04/M11 A3032 RMK A01 T10441109  RH  060%=      5-min Rain = 0
KLE1 121524Z 12007KT M04/M11 A3032 RMK A01 T10441110  RH  060%=      5-min Rain = 0
KLE1 121525Z 12008KT M04/M11 A3031 RMK A01 T10431109  RH  060%=      5-min Rain = 0
KLE1 121526Z 12009KT M04/M11 A3031 RMK A01 T10431109  RH  060%=      5-min Rain = 0
KLE1 121527Z 11008KT M04/M11 A3031 RMK A01 T10441110  RH  060%=      5-min Rain = 0
KLE1 121528Z 11009KT M04/M11 A3031 RMK A01 T10441110  RH  060%=      5-min Rain = 0
KLE1 121529Z 12008KT M04/M11 A3031 RMK A01 T10431111  RH  059%=      5-min Rain = 0
KLE1 121530Z 11008KT M04/M11 A3031 RMK A01 T10431110  RH  060%=      5-min Rain = 0
KLE1 121531Z 12008KT M04/M11 A3031 RMK A01 T10411109  RH  059%=      5-min Rain = 0
KLE1 121532Z 12009KT M04/M11 A3031 RMK A01 T10411113  RH  057%=      5-min Rain = 0
KLE1 121533Z 10008KT M04/M11 A3032 RMK A01 T10411114  RH  057%=      5-min Rain = 0
KLE1 121534Z 10008KT M04/M11 A3032 RMK A01 T10401112  RH  057%=      5-min Rain = 0
KLE1 121535Z 10007KT M04/M11 A3032 RMK A01 T10401113  RH  057%=      5-min Rain = 0
KLE1 121536Z 11008KT M04/M12 A3032 RMK A01 T10401115  RH  056%=      5-min Rain = 0
KLE1 121537Z 12006KT M04/M11 A3032 RMK A01 T10391114  RH  056%=      5-min Rain = 0
KLE1 121538Z 10006KT M04/M11 A3033 RMK A01 T10361111  RH  056%=      5-min Rain = 0
KLE1 121539Z 09008KT M04/M11 A3033 RMK A01 T10351112  RH  055%=      5-min Rain = 0
KLE1 121540Z 10008KT M04/M11 A3033 RMK A01 T10351114  RH  054%=      5-min Rain = 0
KLE1 121541Z 11008KT M04/M12 A3033 RMK A01 T10361116  RH  054%=      5-min Rain = 0
KLE1 121542Z 11006KT M04/M12 A3033 RMK A01 T10371118  RH  054%=      5-min Rain = 0
KLE1 121543Z 11007KT M04/M12 A3033 RMK A01 T10371117  RH  054%=      5-min Rain = 0
KLE1 121544Z 11007KT M04/M12 A3033 RMK A01 T10371118  RH  054%=      5-min Rain = 0
KLE1 121545Z 11008KT M04/M12 A3033 RMK A01 T10371118  RH  054%=      5-min Rain = 0
KLE1 121546Z 11007KT M04/M12 A3033 RMK A01 T10371118  RH  054%=      5-min Rain = 0
KLE1 121547Z 10006KT M04/M12 A3033 RMK A01 T10381117  RH  054%=      5-min Rain = 0
KLE1 121548Z 10007KT M04/M12 A3033 RMK A01 T10371115  RH  055%=      5-min Rain = 0
KLE1 121549Z 11007KT M04/M12 A3033 RMK A01 T10351115  RH  054%=      5-min Rain = 0
KLE1 121550Z 11007KT M04/M12 A3033 RMK A01 T10371116  RH  054%=      5-min Rain = 0
KLE1 121551Z 11007KT M04/M12 A3033 RMK A01 T10381117  RH  054%=      5-min Rain = 0
KLE1 121552Z 12007KT M04/M12 A3033 RMK A01 T10381116  RH  055%=      5-min Rain = 0
KLE1 121553Z 13006KT M04/M11 A3033 RMK A01 T10371114  RH  055%=      5-min Rain = 0
KLE1 121554Z 13006KT M04/M11 A3033 RMK A01 T10351113  RH  055%=      5-min Rain = 0
KLE1 121555Z 13007KT M04/M11 A3033 RMK A01 T10351114  RH  054%=      5-min Rain = 0
KLE1 121556Z 12007KT M04/M12 A3033 RMK A01 T10351115  RH  054%=      5-min Rain = 0
KLE1 121557Z 12007KT M04/M12 A3033 RMK A01 T10351115  RH  054%=      5-min Rain = 0
KLE1 121558Z 12007KT M03/M12 A3033 RMK A01 T10341115  RH  054%=      5-min Rain = 0
KLE1 121559Z 12007KT M03/M11 A3033 RMK A01 T10341114  RH  054%=      5-min Rain = 0
KLE1 121600Z 12006KT M03/M12 A3032 RMK A01 T10331115  RH  053%=      5-min Rain = 0
KLE1 121601Z 12007KT M03/M12 A3032 RMK A01 T10341115  RH  053%=      5-min Rain = 0
KLE1 121602Z 11005KT M03/M12 A3032 RMK A01 T10341115  RH  053%=      5-min Rain = 0
KLE1 121603Z 13007KT M03/M11 A3032 RMK A01 T10331114  RH  054%=      5-min Rain = 0
KLE1 121604Z 13008KT M03/M11 A3032 RMK A01 T10321113  RH  053%=      5-min Rain = 0
KLE1 121605Z 13008KT M03/M11 A3032 RMK A01 T10321114  RH  053%=      5-min Rain = 0
KLE1 121606Z 13007KT M03/M12 A3032 RMK A01 T10311115  RH  053%=      5-min Rain = 0
KLE1 121607Z 13006KT M03/M12 A3033 RMK A01 T10321116  RH  052%=      5-min Rain = 0
KLE1 121608Z 12007KT M03/M12 A3033 RMK A01 T10311115  RH  052%=      5-min Rain = 0
KLE1 121609Z 12007KT M03/M11 A3032 RMK A01 T10281114  RH  052%=      5-min Rain = 0
KLE1 121610Z 12006KT M03/M12 A3032 RMK A01 T10281115  RH  051%=      5-min Rain = 0
KLE1 121611Z 12006KT M03/M12 A3032 RMK A01 T10281115  RH  051%=      5-min Rain = 0
KLE1 121612Z 14004KT M03/M12 A3032 RMK A01 T10281115  RH  051%=      5-min Rain = 0
KLE1 121613Z 12007KT M03/M12 A3032 RMK A01 T10261115  RH  051%=      5-min Rain = 0
KLE1 121614Z 12007KT M03/M12 A3032 RMK A01 T10261118  RH  049%=      5-min Rain = 0
KLE1 121615Z 11006KT M03/M12 A3032 RMK A01 T10281120  RH  049%=      5-min Rain = 0
KLE1 121616Z 12006KT M03/M12 A3033 RMK A01 T10291119  RH  050%=      5-min Rain = 0
KLE1 121617Z 13006KT M03/M12 A3033 RMK A01 T10271117  RH  050%=      5-min Rain = 0
KLE1 121618Z 14008KT M03/M12 A3033 RMK A01 T10251116  RH  049%=      5-min Rain = 0
KLE1 121619Z 14006KT M03/M12 A3033 RMK A01 T10261119  RH  049%=      5-min Rain = 0
KLE1 121620Z 12007KT M03/M12 A3033 RMK A01 T10271119  RH  049%=      5-min Rain = 0
KLE1 121621Z 12006KT M03/M12 A3033 RMK A01 T10261119  RH  049%=      5-min Rain = 0
KLE1 121622Z 12008KT M03/M12 A3032 RMK A01 T10261120  RH  049%=      5-min Rain = 0
KLE1 121623Z 12007KT M03/M12 A3032 RMK A01 T10261120  RH  049%=      5-min Rain = 0
KLE1 121624Z 12007KT M03/M12 A3032 RMK A01 T10251119  RH  048%=      5-min Rain = 0
KLE1 121625Z 12008KT M03/M12 A3032 RMK A01 T10261121  RH  048%=      5-min Rain = 0
KLE1 121626Z 12007KT M03/M12 A3032 RMK A01 T10261122  RH  048%=      5-min Rain = 0
KLE1 121627Z 12008KT M03/M12 A3032 RMK A01 T10271123  RH  048%=      5-min Rain = 0
KLE1 121628Z 12007KT M03/M12 A3032 RMK A01 T10271123  RH  047%=      5-min Rain = 0
KLE1 121629Z 11007KT M03/M12 A3032 RMK A01 T10261123  RH  047%=      5-min Rain = 0
KLE1 121630Z 11007KT M03/M12 A3032 RMK A01 T10271124  RH  047%=      5-min Rain = 0
KLE1 121631Z 11009KT M03/M12 A3032 RMK A01 T10251121  RH  048%=      5-min Rain = 0
KLE1 121632Z 12007KT M03/M12 A3032 RMK A01 T10251123  RH  047%=      5-min Rain = 0
KLE1 121633Z 12008KT M03/M12 A3032 RMK A01 T10261123  RH  047%=      5-min Rain = 0
KLE1 121634Z 11007KT M03/M12 A3032 RMK A01 T10271123  RH  048%=      5-min Rain = 0
KLE1 121635Z 13008KT M03/M12 A3032 RMK A01 T10261122  RH  048%=      5-min Rain = 0
KLE1 121636Z 13007KT M03/M12 A3032 RMK A01 T10261123  RH  047%=      5-min Rain = 0
KLE1 121637Z 12007KT M03/M12 A3032 RMK A01 T10261123  RH  047%=      5-min Rain = 0
KLE1 121638Z 12006KT M03/M12 A3032 RMK A01 T10251122  RH  047%=      5-min Rain = 0
KLE1 121639Z 13008KT M02/M12 A3031 RMK A01 T10241121  RH  047%=      5-min Rain = 0
KLE1 121640Z 14007KT M02/M12 A3031 RMK A01 T10231121  RH  047%=      5-min Rain = 0
KLE1 121641Z 13007KT M02/M12 A3031 RMK A01 T10201120  RH  046%=      5-min Rain = 0
KLE1 121642Z 12008KT M02/M12 A3032 RMK A01 T10201122  RH  046%=      5-min Rain = 0
KLE1 121643Z 12006KT M02/M12 A3032 RMK A01 T10211124  RH  045%=      5-min Rain = 0
KLE1 121644Z 10007KT M02/M12 A3032 RMK A01 T10211123  RH  046%=      5-min Rain = 0
KLE1 121645Z 11007KT M02/M12 A3032 RMK A01 T10201122  RH  046%=      5-min Rain = 0
KLE1 121646Z 12008KT M02/M12 A3032 RMK A01 T10191121  RH  046%=      5-min Rain = 0
KLE1 121647Z 13006KT M02/M12 A3032 RMK A01 T10181122  RH  045%=      5-min Rain = 0
KLE1 121648Z 12008KT M02/M12 A3032 RMK A01 T10191122  RH  045%=      5-min Rain = 0
KLE1 121649Z 12008KT M02/M12 A3032 RMK A01 T10181121  RH  045%=      5-min Rain = 0
KLE1 121650Z 11008KT M02/M12 A3032 RMK A01 T10181122  RH  045%=      5-min Rain = 0
KLE1 121651Z 12006KT M02/M12 A3032 RMK A01 T10191122  RH  045%=      5-min Rain = 0
KLE1 121652Z 11005KT M02/M12 A3032 RMK A01 T10171120  RH  045%=      5-min Rain = 0
KLE1 121653Z 11007KT M02/M12 A3032 RMK A01 T10171121  RH  045%=      5-min Rain = 0
KLE1 121654Z 12008KT M02/M12 A3031 RMK A01 T10171120  RH  045%=      5-min Rain = 0
KLE1 121655Z 14006KT M02/M12 A3031 RMK A01 T10161121  RH  045%=      5-min Rain = 0
KLE1 121656Z 12006KT M02/M12 A3031 RMK A01 T10161119  RH  045%=      5-min Rain = 0
KLE1 121657Z 12007KT M01/M12 A3031 RMK A01 T10141119  RH  045%=      5-min Rain = 0
KLE1 121658Z 12007KT M01/M12 A3031 RMK A01 T10131118  RH  045%=      5-min Rain = 0
KLE1 121659Z 11006KT M01/M12 A3031 RMK A01 T10131120  RH  044%=      5-min Rain = 0
KLE1 121700Z 11008KT M01/M12 A3031 RMK A01 T10141120  RH  044%=      5-min Rain = 0
KLE1 121701Z 11007KT M01/M12 A3031 RMK A01 T10131120  RH  044%=      5-min Rain = 0
KLE1 121702Z 11007KT M02/M12 A3031 RMK A01 T10151121  RH  044%=      5-min Rain = 0
KLE1 121703Z 11008KT M01/M12 A3031 RMK A01 T10131119  RH  044%=      5-min Rain = 0
KLE1 121704Z 10007KT M01/M12 A3031 RMK A01 T10131121  RH  044%=      5-min Rain = 0
KLE1 121705Z 11007KT M01/M12 A3031 RMK A01 T10141120  RH  044%=      5-min Rain = 0
KLE1 121706Z 13008KT M01/M12 A3031 RMK A01 T10101116  RH  044%=      5-min Rain = 0
KLE1 121707Z 12007KT M01/M12 A3031 RMK A01 T10081117  RH  044%=      5-min Rain = 0
KLE1 121708Z 12007KT M01/M12 A303 RMK A01 T10101120  RH  043%=      5-min Rain = 0
KLE1 121709Z 13007KT M01/M12 A303 RMK A01 T10121121  RH  043%=      5-min Rain = 0
KLE1 121710Z 13008KT M01/M12 A303 RMK A01 T10131121  RH  044%=      5-min Rain = 0
KLE1 121711Z 12009KT M01/M12 A303 RMK A01 T10121119  RH  044%=      5-min Rain = 0
KLE1 121712Z 11008KT M01/M12 A303 RMK A01 T10111119  RH  044%=      5-min Rain = 0
KLE1 121713Z 12006KT M01/M12 A303 RMK A01 T10111119  RH  044%=      5-min Rain = 0
KLE1 121714Z 12007KT M01/M12 A303 RMK A01 T10091117  RH  044%=      5-min Rain = 0
KLE1 121715Z 12009KT M01/M12 A303 RMK A01 T10101117  RH  044%=      5-min Rain = 0
KLE1 121716Z 12008KT M01/M12 A303 RMK A01 T10091116  RH  044%=      5-min Rain = 0
KLE1 121717Z 13006KT M01/M12 A303 RMK A01 T10101117  RH  044%=      5-min Rain = 0
KLE1 121718Z 12008KT M01/M12 A303 RMK A01 T10111116  RH  045%=      5-min Rain = 0
KLE1 121719Z 13007KT M01/M12 A303 RMK A01 T10101115  RH  045%=      5-min Rain = 0
KLE1 121720Z 13009KT M01/M11 A303 RMK A01 T10091114  RH  045%=      5-min Rain = 0
KLE1 121721Z 14006KT M01/M11 A3029 RMK A01 T10091114  RH  045%=      5-min Rain = 0
KLE1 121722Z 13007KT M01/M11 A3029 RMK A01 T10091113  RH  045%=      5-min Rain = 0
KLE1 121723Z 11006KT M01/M11 A3029 RMK A01 T10071112  RH  045%=      5-min Rain = 0
KLE1 121724Z 13009KT M01/M11 A3029 RMK A01 T10061111  RH  045%=      5-min Rain = 0
KLE1 121725Z 13008KT M01/M11 A3029 RMK A01 T10051112  RH  044%=      5-min Rain = 0
KLE1 121726Z 13007KT M01/M11 A3029 RMK A01 T10061112  RH  045%=      5-min Rain = 0
KLE1 121727Z 13005KT M01/M11 A3029 RMK A01 T10091113  RH  045%=      5-min Rain = 0
KLE1 121728Z 12005KT M01/M11 A3029 RMK A01 T10101112  RH  046%=      5-min Rain = 0
KLE1 121729Z 11007KT M01/M11 A3029 RMK A01 T10051106  RH  046%=      5-min Rain = 0
KLE1 121730Z 11008KT 00/11 A3029 RMK A01 T00-00-106  RH  045%=      5-min Rain = 0
KLE1 121731Z 11005KT M00/M11 A3029 RMK A01 T10021110  RH  044%=      5-min Rain = 0
KLE1 121732Z 11007KT M00/M11 A3029 RMK A01 T10021110  RH  044%=      5-min Rain = 0
KLE1 121733Z 13007KT M00/M11 A3029 RMK A01 T10021111  RH  044%=      5-min Rain = 0
KLE1 121734Z 14008KT M00/M11 A3029 RMK A01 T10021110  RH  044%=      5-min Rain = 0
KLE1 121735Z 13008KT M00/M11 A3029 RMK A01 T10021112  RH  043%=      5-min Rain = 0
KLE1 121736Z 14007KT M00/M11 A3029 RMK A01 T10031112  RH  044%=      5-min Rain = 0
KLE1 121737Z 13005KT M00/M11 A3028 RMK A01 T10041112  RH  044%=      5-min Rain = 0
KLE1 121738Z 10008KT M00/M11 A3028 RMK A01 T10031111  RH  044%=      5-min Rain = 0
KLE1 121739Z 11008KT M00/M11 A3028 RMK A01 T10011110  RH  044%=      5-min Rain = 0
KLE1 121740Z 10004KT M00/M11 A3028 RMK A01 T10031113  RH  043%=      5-min Rain = 0
KLE1 121741Z 09005KT M00/M11 A3028 RMK A01 T10021111  RH  044%=      5-min Rain = 0
KLE1 121742Z 12008KT 00/M11 A3028 RMK A01 T00011109  RH  044%=      5-min Rain = 0
KLE1 121743Z 12006KT 00/M11 A3028 RMK A01 T00021111  RH  043%=      5-min Rain = 0
KLE1 121744Z 12008KT 00/11 A3028 RMK A01 T00-00-112  RH  043%=      5-min Rain = 0
KLE1 121745Z 13006KT M00/M11 A3028 RMK A01 T10011112  RH  043%=      5-min Rain = 0
KLE1 121746Z 13006KT M00/M11 A3028 RMK A01 T10021111  RH  044%=      5-min Rain = 0
KLE1 121747Z 11004KT 00/11 A3028 RMK A01 T00-00-110  RH  043%=      5-min Rain = 0
KLE1 121748Z 12005KT 00/11 A3028 RMK A01 T00-00-110  RH  043%=      5-min Rain = 0
KLE1 121749Z 11005KT 00/11 A3028 RMK A01 T00000-110  RH  043%=      5-min Rain = 0
KLE1 121750Z 10008KT 00/M11 A3028 RMK A01 T00021107  RH  044%=      5-min Rain = 0
KLE1 121751Z 11007KT 01/M11 A3027 RMK A01 T00051108  RH  043%=      5-min Rain = 0
KLE1 121752Z 09005KT 00/M11 A3027 RMK A01 T00021111  RH  042%=      5-min Rain = 0
KLE1 121753Z 11005KT 00/11 A3027 RMK A01 T00000-111  RH  043%=      5-min Rain = 0
KLE1 121754Z 10008KT 00/M11 A3027 RMK A01 T00031107  RH  043%=      5-min Rain = 0
KLE1 121755Z 11007KT 00/M11 A3027 RMK A01 T00041108  RH  043%=      5-min Rain = 0
KLE1 121756Z 10007KT 01/M11 A3027 RMK A01 T00051108  RH  043%=      5-min Rain = 0
KLE1 121757Z 10007KT 01/M11 A3027 RMK A01 T00051108  RH  042%=      5-min Rain = 0
KLE1 121758Z 12007KT 00/M11 A3027 RMK A01 T00041109  RH  042%=      5-min Rain = 0
KLE1 121759Z 11006KT 01/M11 A3027 RMK A01 T00051109  RH  042%=      5-min Rain = 0
KLE1 121800Z 11006KT 01/M11 A3027 RMK A01 T00051109  RH  042%=      5-min Rain = 0
KLE1 121801Z 09006KT 01/M11 A3026 RMK A01 T00051109  RH  042%=      5-min Rain = 0
KLE1 121802Z 10005KT 01/M11 A3026 RMK A01 T00071107  RH  042%=      5-min Rain = 0
KLE1 121803Z 10005KT 01/M11 A3026 RMK A01 T00071109  RH  042%=      5-min Rain = 0
KLE1 121804Z 11006KT 01/M11 A3026 RMK A01 T00061108  RH  042%=      5-min Rain = 0
KLE1 121805Z 10007KT 01/M11 A3026 RMK A01 T00091106  RH  042%=      5-min Rain = 0
KLE1 121806Z 13006KT 01/M11 A3026 RMK A01 T00111107  RH  041%=      5-min Rain = 0
KLE1 121807Z 12006KT 01/M11 A3026 RMK A01 T00091109  RH  041%=      5-min Rain = 0
KLE1 121808Z 11009KT 01/M11 A3025 RMK A01 T00111106  RH  041%=      5-min Rain = 0
KLE1 121809Z 11007KT 01/M11 A3025 RMK A01 T00131107  RH  040%=      5-min Rain = 0
KLE1 121810Z 11007KT 01/M11 A3025 RMK A01 T00141108  RH  040%=      5-min Rain = 0
KLE1 121811Z 12008KT 01/M11 A3025 RMK A01 T00141107  RH  040%=      5-min Rain = 0
KLE1 121812Z 11008KT 02/M11 A3025 RMK A01 T00151108  RH  040%=      5-min Rain = 0
KLE1 121813Z 11007KT 01/M11 A3025 RMK A01 T00131109  RH  040%=      5-min Rain = 0
KLE1 121814Z 12007KT 01/M11 A3025 RMK A01 T00131108  RH  040%=      5-min Rain = 0
KLE1 121815Z 12007KT 01/M11 A3025 RMK A01 T00131108  RH  040%=      5-min Rain = 0
KLE1 121816Z 11007KT 01/M11 A3024 RMK A01 T00131109  RH  040%=      5-min Rain = 0
KLE1 121817Z 12008KT 01/M11 A3024 RMK A01 T00141107  RH  040%=      5-min Rain = 0
KLE1 121818Z 13008KT 02/M11 A3024 RMK A01 T00191105  RH  039%=      5-min Rain = 0
KLE1 121819Z 14008KT 02/M11 A3024 RMK A01 T00191108  RH  038%=      5-min Rain = 0
KLE1 121820Z 13005KT 02/M11 A3024 RMK A01 T00181110  RH  038%=      5-min Rain = 0
KLE1 121821Z 12006KT 02/M11 A3024 RMK A01 T00171110  RH  038%=      5-min Rain = 0
KLE1 121822Z 11010KT 02/M11 A3024 RMK A01 T00201107  RH  038%=      5-min Rain = 0
KLE1 121823Z 12009KT 02/M11 A3024 RMK A01 T00211109  RH  038%=      5-min Rain = 0
KLE1 121824Z 11008KT 02/M11 A3024 RMK A01 T00201111  RH  037%=      5-min Rain = 0
KLE1 121825Z 11007KT 02/M11 A3024 RMK A01 T00181113  RH  037%=      5-min Rain = 0
KLE1 121826Z 10007KT 02/M11 A3024 RMK A01 T00161113  RH  038%=      5-min Rain = 0
KLE1 121827Z 11008KT 02/M11 A3024 RMK A01 T00161111  RH  038%=      5-min Rain = 0
KLE1 121828Z 12009KT 02/M11 A3024 RMK A01 T00201108  RH  038%=      5-min Rain = 0
KLE1 121829Z 11008KT 02/M11 A3023 RMK A01 T00211110  RH  037%=      5-min Rain = 0
KLE1 121830Z 12008KT 02/M11 A3024 RMK A01 T00201110  RH  037%=      5-min Rain = 0
KLE1 121831Z 11011KT 02/M11 A3023 RMK A01 T00201111  RH  037%=      5-min Rain = 0
KLE1 121832Z 11008KT 02/M11 A3024 RMK A01 T00221109  RH  037%=      5-min Rain = 0
KLE1 121833Z 11008KT 02/M11 A3024 RMK A01 T00241110  RH  037%=      5-min Rain = 0
KLE1 121834Z 11007KT 02/M11 A3024 RMK A01 T00231111  RH  036%=      5-min Rain = 0
KLE1 121835Z 12008KT 02/M11 A3024 RMK A01 T00241111  RH  036%=      5-min Rain = 0
KLE1 121836Z 12008KT 02/M11 A3024 RMK A01 T00241111  RH  036%=      5-min Rain = 0
KLE1 121837Z 12007KT 02/M11 A3024 RMK A01 T00241111  RH  036%=      5-min Rain = 0
KLE1 121838Z 12004KT 02/M11 A3023 RMK A01 T00241112  RH  036%=      5-min Rain = 0
KLE1 121839Z 12006KT 02/M11 A3023 RMK A01 T00231112  RH  036%=      5-min Rain = 0
KLE1 121840Z 13007KT 02/M11 A3023 RMK A01 T00241110  RH  036%=      5-min Rain = 0
KLE1 121841Z 11008KT 02/M11 A3023 RMK A01 T00241111  RH  036%=      5-min Rain = 0
KLE1 121842Z 10007KT 03/M11 A3023 RMK A01 T00251111  RH  036%=      5-min Rain = 0
KLE1 121843Z 13008KT 03/M11 A3023 RMK A01 T00271110  RH  036%=      5-min Rain = 0
KLE1 121844Z 12006KT 03/M11 A3023 RMK A01 T00291110  RH  035%=      5-min Rain = 0
KLE1 121845Z 11006KT 03/M11 A3022 RMK A01 T00301110  RH  035%=      5-min Rain = 0
KLE1 121846Z 10007KT 03/M11 A3022 RMK A01 T00321110  RH  035%=      5-min Rain = 0
KLE1 121847Z 11009KT 03/M11 A3022 RMK A01 T00311112  RH  034%=      5-min Rain = 0
KLE1 121848Z 10008KT 03/M11 A3022 RMK A01 T00291112  RH  034%=      5-min Rain = 0
KLE1 121849Z 13010KT 03/M11 A3022 RMK A01 T00301111  RH  035%=      5-min Rain = 0
KLE1 121850Z 11009KT 03/M11 A3022 RMK A01 T00311111  RH  034%=      5-min Rain = 0
KLE1 121851Z 11009KT 03/M11 A3022 RMK A01 T00311112  RH  034%=      5-min Rain = 0
KLE1 121852Z 10009KT 03/M11 A3022 RMK A01 T00311111  RH  034%=      5-min Rain = 0
KLE1 121853Z 10011KT 03/M11 A3022 RMK A01 T00321111  RH  034%=      5-min Rain = 0
KLE1 121854Z 10009KT 03/M11 A3022 RMK A01 T00321112  RH  034%=      5-min Rain = 0
KLE1 121855Z 11008KT 03/M11 A3022 RMK A01 T00321111  RH  034%=      5-min Rain = 0
KLE1 121856Z 11009KT 04/M11 A3022 RMK A01 T00361108  RH  034%=      5-min Rain = 0
KLE1 121857Z 11010KT 04/M11 A3021 RMK A01 T00391108  RH  033%=      5-min Rain = 0
KLE1 121858Z 10009KT 04/M11 A3021 RMK A01 T00371112  RH  033%=      5-min Rain = 0
KLE1 121859Z 10008KT 04/M11 A3021 RMK A01 T00351113  RH  033%=      5-min Rain = 0
KLE1 121900Z 10009KT 03/M11 A3021 RMK A01 T00331113  RH  033%=      5-min Rain = 0
KLE1 121901Z 11011KT 04/M11 A3021 RMK A01 T00351110  RH  034%=      5-min Rain = 0
KLE1 121902Z 12010KT 04/M11 A3021 RMK A01 T00361111  RH  033%=      5-min Rain = 0
KLE1 121903Z 11006KT 04/M11 A3021 RMK A01 T00351113  RH  033%=      5-min Rain = 0
KLE1 121904Z 10007KT 03/M11 A3021 RMK A01 T00341113  RH  033%=      5-min Rain = 0
KLE1 121905Z 10011KT 04/M11 A3021 RMK A01 T00351112  RH  033%=      5-min Rain = 0
KLE1 121906Z 09009KT 04/M11 A3021 RMK A01 T00371111  RH  033%=      5-min Rain = 0
KLE1 121907Z 11010G16KT 04/M11 A3021 RMK A01 T00391110  RH  033%=      5-min Rain = 0
KLE1 121908Z 10009KT 04/M11 A3021 RMK A01 T00391111  RH  033%=      5-min Rain = 0
KLE1 121909Z 09010KT 04/M11 A3021 RMK A01 T00421108  RH  033%=      5-min Rain = 0
KLE1 121910Z 09009KT 04/M11 A3021 RMK A01 T00421111  RH  032%=      5-min Rain = 0
KLE1 121911Z 11012KT 04/M11 A302 RMK A01 T00431110  RH  032%=      5-min Rain = 0
KLE1 121912Z 12011KT 04/M11 A302 RMK A01 T00411111  RH  032%=      5-min Rain = 0
KLE1 121913Z 11010KT 04/M11 A302 RMK A01 T00401112  RH  032%=      5-min Rain = 0
KLE1 121914Z 11009KT 04/M11 A302 RMK A01 T00421109  RH  032%=      5-min Rain = 0
KLE1 121915Z 09011KT 04/M11 A302 RMK A01 T00431110  RH  032%=      5-min Rain = 0
KLE1 121916Z 10011KT 04/M11 A302 RMK A01 T00411112  RH  032%=      5-min Rain = 0
KLE1 121917Z 11011KT 04/M11 A302 RMK A01 T00421111  RH  032%=      5-min Rain = 0
KLE1 121918Z 11010KT 04/M11 A302 RMK A01 T00411111  RH  032%=      5-min Rain = 0
KLE1 121919Z 10009KT 04/M11 A302 RMK A01 T00421110  RH  032%=      5-min Rain = 0
KLE1 121920Z 11008KT 05/M11 A302 RMK A01 T00451110  RH  032%=      5-min Rain = 0
KLE1 121921Z 10011KT 04/M11 A302 RMK A01 T00441111  RH  031%=      5-min Rain = 0
KLE1 121922Z 10012KT 05/M11 A302 RMK A01 T00451111  RH  031%=      5-min Rain = 0
KLE1 121923Z 10010KT 04/M11 A302 RMK A01 T00441112  RH  031%=      5-min Rain = 0
KLE1 121924Z 10009KT 04/M11 A302 RMK A01 T00421114  RH  031%=      5-min Rain = 0
KLE1 121925Z 09008KT 04/M11 A302 RMK A01 T00411113  RH  032%=      5-min Rain = 0
KLE1 121926Z 10010KT 04/M11 A302 RMK A01 T00421111  RH  032%=      5-min Rain = 0
KLE1 121927Z 10010KT 04/M11 A302 RMK A01 T00441110  RH  032%=      5-min Rain = 0
KLE1 121928Z 10011KT 05/M11 A302 RMK A01 T00451111  RH  031%=      5-min Rain = 0
KLE1 121929Z 11010KT 05/M11 A302 RMK A01 T00461111  RH  031%=      5-min Rain = 0
KLE1 121930Z 11012KT 05/M11 A302 RMK A01 T00491109  RH  031%=      5-min Rain = 0
KLE1 121931Z 11010KT 05/M11 A302 RMK A01 T00491111  RH  030%=      5-min Rain = 0
KLE1 121932Z 11010KT 05/M11 A3019 RMK A01 T00481112  RH  030%=      5-min Rain = 0
KLE1 121933Z 12010KT 05/M11 A3019 RMK A01 T00471111  RH  031%=      5-min Rain = 0
KLE1 121934Z 10011KT 05/M11 A3019 RMK A01 T00491109  RH  031%=      5-min Rain = 0
KLE1 121935Z 11010KT 05/M11 A3019 RMK A01 T00501111  RH  030%=      5-min Rain = 0
KLE1 121936Z 10007G12KT 05/M11 A3019 RMK A01 T00481112  RH  030%=      5-min Rain = 0
KLE1 121937Z 11010KT 05/M11 A3019 RMK A01 T00511108  RH  031%=      5-min Rain = 0
KLE1 121938Z 10013KT 05/M11 A3019 RMK A01 T00541108  RH  030%=      5-min Rain = 0
KLE1 121939Z 11012KT 05/M11 A3019 RMK A01 T00541109  RH  030%=      5-min Rain = 0
KLE1 121940Z 10013KT 06/M11 A3019 RMK A01 T00551108  RH  030%=      5-min Rain = 0
KLE1 121941Z 09012KT 06/M11 A3019 RMK A01 T00561110  RH  029%=      5-min Rain = 0
KLE1 121942Z 11011KT 06/M11 A3019 RMK A01 T00551111  RH  029%=      5-min Rain = 0
KLE1 121943Z 09012KT 05/M11 A3019 RMK A01 T00541111  RH  029%=      5-min Rain = 0
KLE1 121944Z 11011KT 06/M11 A3018 RMK A01 T00551110  RH  029%=      5-min Rain = 0
KLE1 121945Z 10009KT 05/M11 A3018 RMK A01 T00541110  RH  029%=      5-min Rain = 0
KLE1 121946Z 12008KT 05/M11 A3018 RMK A01 T00541111  RH  029%=      5-min Rain = 0
KLE1 121947Z 11010KT 05/M11 A3018 RMK A01 T00541110  RH  029%=      5-min Rain = 0
KLE1 121948Z 11011KT 06/M11 A3018 RMK A01 T00561110  RH  029%=      5-min Rain = 0
KLE1 121949Z 12010KT 06/M11 A3018 RMK A01 T00561110  RH  029%=      5-min Rain = 0
KLE1 121950Z 12010KT 06/M11 A3018 RMK A01 T00561110  RH  029%=      5-min Rain = 0
KLE1 121951Z 13013KT 06/M11 A3018 RMK A01 T00581108  RH  029%=      5-min Rain = 0
KLE1 121952Z 12011KT 06/M11 A3018 RMK A01 T00591110  RH  029%=      5-min Rain = 0
KLE1 121953Z 12011G16KT 06/M11 A3018 RMK A01 T00581110  RH  029%=      5-min Rain = 0
KLE1 121954Z 14011KT 06/M11 A3018 RMK A01 T00611108  RH  029%=      5-min Rain = 0
KLE1 121955Z 15010KT 06/M11 A3018 RMK A01 T00631110  RH  028%=      5-min Rain = 0
KLE1 121956Z 15010KT 06/M11 A3018 RMK A01 T00621111  RH  028%=      5-min Rain = 0
KLE1 121957Z 12012KT 07/M11 A3018 RMK A01 T00651108  RH  028%=      5-min Rain = 0
KLE1 121958Z 12011KT 07/M11 A3018 RMK A01 T00661109  RH  028%=      5-min Rain = 0
KLE1 121959Z 13008KT 06/M11 A3018 RMK A01 T00641110  RH  028%=      5-min Rain = 0
KLE1 122000Z 12010KT 07/M11 A3018 RMK A01 T00651108  RH  028%=      5-min Rain = 0
KLE1 122001Z 12012KT 06/M11 A3018 RMK A01 T00641109  RH  028%=      5-min Rain = 0
KLE1 122002Z 11010KT 06/M11 A3018 RMK A01 T00621111  RH  028%=      5-min Rain = 0
KLE1 122003Z 12013KT 06/M11 A3018 RMK A01 T00611110  RH  028%=      5-min Rain = 0
KLE1 122004Z 13011KT 06/M11 A3018 RMK A01 T00631109  RH  028%=      5-min Rain = 0
KLE1 122005Z 12010KT 06/M11 A3018 RMK A01 T00631111  RH  028%=      5-min Rain = 0
KLE1 122006Z 12010KT 06/M11 A3018 RMK A01 T00621110  RH  028%=      5-min Rain = 0
KLE1 122007Z 13012KT 06/M11 A3018 RMK A01 T00641108  RH  028%=      5-min Rain = 0
KLE1 122008Z 14011KT 07/M11 A3018 RMK A01 T00651111  RH  027%=      5-min Rain = 0
KLE1 122009Z 13010KT 06/M11 A3018 RMK A01 T00631113  RH  027%=      5-min Rain = 0
KLE1 122010Z 14010KT 06/M11 A3018 RMK A01 T00641111  RH  027%=      5-min Rain = 0
KLE1 122011Z 14009KT 07/M11 A3018 RMK A01 T00671109  RH  027%=      5-min Rain = 0
KLE1 122012Z 13012KT 07/M11 A3018 RMK A01 T00681111  RH  027%=      5-min Rain = 0
KLE1 122013Z 12010KT 07/M11 A3018 RMK A01 T00661112  RH  027%=      5-min Rain = 0
KLE1 122014Z 12011KT 07/M11 A3018 RMK A01 T00651110  RH  027%=      5-min Rain = 0
KLE1 122015Z 13011KT 07/M11 A3018 RMK A01 T00671107  RH  028%=      5-min Rain = 0
KLE1 122016Z 11011KT 07/M11 A3018 RMK A01 T00681107  RH  027%=      5-min Rain = 0
KLE1 122017Z 12010KT 07/M11 A3018 RMK A01 T00661110  RH  027%=      5-min Rain = 0
KLE1 122018Z 12012KT 07/M11 A3018 RMK A01 T00651109  RH  027%=      5-min Rain = 0
KLE1 122019Z 12012KT 07/M11 A3018 RMK A01 T00681108  RH  027%=      5-min Rain = 0
KLE1 122020Z 13012KT 07/M11 A3018 RMK A01 T00691109  RH  027%=      5-min Rain = 0
KLE1 122021Z 13014KT 07/M11 A3018 RMK A01 T00671111  RH  027%=      5-min Rain = 0
KLE1 122022Z 13013KT 07/M11 A3018 RMK A01 T00661111  RH  027%=      5-min Rain = 0
KLE1 122023Z 13014KT 07/M11 A3018 RMK A01 T00651111  RH  027%=      5-min Rain = 0
KLE1 122024Z 13013KT 07/M11 A3018 RMK A01 T00661111  RH  027%=      5-min Rain = 0
KLE1 122025Z 13010KT 07/M11 A3018 RMK A01 T00681110  RH  027%=      5-min Rain = 0
KLE1 122026Z 12012KT 07/M11 A3018 RMK A01 T00711107  RH  027%=      5-min Rain = 0
KLE1 122027Z 12009KT 07/M11 A3018 RMK A01 T00701109  RH  027%=      5-min Rain = 0
KLE1 122028Z 12009KT 07/M11 A3018 RMK A01 T00691108  RH  027%=      5-min Rain = 0
KLE1 122029Z 12012KT 07/M11 A3018 RMK A01 T00701108  RH  027%=      5-min Rain = 0
KLE1 122030Z 13015KT 07/M11 A3018 RMK A01 T00691112  RH  026%=      5-min Rain = 0
KLE1 122031Z 13013KT 07/M11 A3018 RMK A01 T00681112  RH  026%=      5-min Rain = 0
KLE1 122032Z 13014KT 07/M11 A3018 RMK A01 T00701111  RH  026%=      5-min Rain = 0
KLE1 122033Z 14012KT 07/M11 A3018 RMK A01 T00731111  RH  026%=      5-min Rain = 0
KLE1 122034Z 14011KT 07/M11 A3018 RMK A01 T00721113  RH  025%=      5-min Rain = 0
KLE1 122035Z 13014G19KT 07/M12 A3017 RMK A01 T00691115  RH  025%=      5-min Rain = 0
KLE1 122036Z 13012G17KT 07/M12 A3018 RMK A01 T00681115  RH  026%=      5-min Rain = 0
KLE1 122037Z 13013KT 07/M12 A3018 RMK A01 T00691115  RH  026%=      5-min Rain = 0
KLE1 122038Z 13012KT 07/M12 A3018 RMK A01 T00701116  RH  025%=      5-min Rain = 0
KLE1 122039Z 13011KT 07/M11 A3018 RMK A01 T00701114  RH  026%=      5-min Rain = 0
KLE1 122040Z 13010KT 07/M11 A3018 RMK A01 T00721111  RH  026%=      5-min Rain = 0
KLE1 122041Z 11011KT 07/M11 A3018 RMK A01 T00741110  RH  026%=      5-min Rain = 0
KLE1 122042Z 12009KT 07/M11 A3018 RMK A01 T00711113  RH  026%=      5-min Rain = 0
KLE1 122043Z 14011KT 07/M11 A3018 RMK A01 T00701111  RH  026%=      5-min Rain = 0
KLE1 122044Z 13007KT 07/M11 A3018 RMK A01 T00721111  RH  026%=      5-min Rain = 0
KLE1 122045Z 13011KT 07/M11 A3017 RMK A01 T00731111  RH  026%=      5-min Rain = 0
KLE1 122046Z 15011KT 08/M11 A3017 RMK A01 T00751112  RH  025%=      5-min Rain = 0
KLE1 122047Z 14012KT 08/M11 A3017 RMK A01 T00761113  RH  025%=      5-min Rain = 0
KLE1 122048Z 13015KT 07/M12 A3017 RMK A01 T00741115  RH  025%=      5-min Rain = 0
KLE1 122049Z 13012KT 07/M12 A3017 RMK A01 T00711116  RH  025%=      5-min Rain = 0
KLE1 122050Z 13011KT 07/M11 A3017 RMK A01 T00691114  RH  026%=      5-min Rain = 0
KLE1 122051Z 13008KT 07/M11 A3017 RMK A01 T00691114  RH  026%=      5-min Rain = 0
KLE1 122052Z 14012KT 07/M11 A3017 RMK A01 T00701112  RH  026%=      5-min Rain = 0
KLE1 122053Z 14012KT 07/M11 A3017 RMK A01 T00741112  RH  025%=      5-min Rain = 0
KLE1 122054Z 14010KT 08/M11 A3017 RMK A01 T00751114  RH  025%=      5-min Rain = 0
KLE1 122055Z 15012KT 07/M12 A3017 RMK A01 T00731116  RH  025%=      5-min Rain = 0
KLE1 122056Z 15016KT 07/M12 A3017 RMK A01 T00741115  RH  025%=      5-min Rain = 0
KLE1 122057Z 16014KT 07/M12 A3017 RMK A01 T00721116  RH  025%=      5-min Rain = 0
KLE1 122058Z 14014KT 07/M11 A3017 RMK A01 T00731114  RH  025%=      5-min Rain = 0
KLE1 122059Z 15014KT 08/M11 A3017 RMK A01 T00751114  RH  025%=      5-min Rain = 0
KLE1 122100Z 15013KT 07/M12 A3017 RMK A01 T00721117  RH  025%=      5-min Rain = 0
KLE1 122101Z 14011G16KT 07/M12 A3017 RMK A01 T00711117  RH  025%=      5-min Rain = 0
KLE1 122102Z 14014KT 07/M12 A3017 RMK A01 T00721116  RH  025%=      5-min Rain = 0
KLE1 122103Z 15013KT 07/M12 A3017 RMK A01 T00741115  RH  025%=      5-min Rain = 0
KLE1 122104Z 15011KT 08/M12 A3017 RMK A01 T00761115  RH  024%=      5-min Rain = 0
KLE1 122105Z 15015KT 08/M12 A3017 RMK A01 T00761116  RH  024%=      5-min Rain = 0
KLE1 122106Z 14013KT 07/M12 A3017 RMK A01 T00741118  RH  024%=      5-min Rain = 0
KLE1 122107Z 13011KT 07/M12 A3017 RMK A01 T00731118  RH  024%=      5-min Rain = 0
KLE1 122108Z 13012KT 08/M12 A3017 RMK A01 T00751116  RH  024%=      5-min Rain = 0
KLE1 122109Z 13012G17KT 08/M12 A3017 RMK A01 T00751117  RH  024%=      5-min Rain = 0
KLE1 122110Z 13015G20KT 08/M12 A3017 RMK A01 T00751116  RH  024%=      5-min Rain = 0
KLE1 122111Z 14016KT 07/M12 A3017 RMK A01 T00741118  RH  024%=      5-min Rain = 0
KLE1 122112Z 15015KT 07/M12 A3017 RMK A01 T00731119  RH  024%=      5-min Rain = 0
KLE1 122113Z 14012KT 07/M12 A3017 RMK A01 T00721118  RH  024%=      5-min Rain = 0
KLE1 122114Z 14014KT 07/M12 A3017 RMK A01 T00731118  RH  024%=      5-min Rain = 0
KLE1 122115Z 13013KT 07/M12 A3017 RMK A01 T00741118  RH  024%=      5-min Rain = 0
KLE1 122116Z 14015KT 07/M12 A3017 RMK A01 T00741118  RH  024%=      5-min Rain = 0
KLE1 122117Z 15016KT 07/M12 A3017 RMK A01 T00741118  RH  024%=      5-min Rain = 0
KLE1 122118Z 15012KT 07/M12 A3017 RMK A01 T00721120  RH  024%=      5-min Rain = 0
KLE1 122119Z 15011KT 07/M12 A3017 RMK A01 T00711119  RH  024%=      5-min Rain = 0
KLE1 122120Z 14011KT 07/M12 A3017 RMK A01 T00731117  RH  025%=      5-min Rain = 0
KLE1 122121Z 13011KT 08/M12 A3017 RMK A01 T00751117  RH  024%=      5-min Rain = 0
KLE1 122122Z 13013KT 08/M12 A3017 RMK A01 T00761118  RH  024%=      5-min Rain = 0
KLE1 122123Z 14013KT 08/M12 A3017 RMK A01 T00761118  RH  024%=      5-min Rain = 0
KLE1 122124Z 15011KT 08/M12 A3017 RMK A01 T00771118  RH  024%=      5-min Rain = 0
KLE1 122125Z 15013KT 08/M12 A3017 RMK A01 T00761119  RH  024%=      5-min Rain = 0
KLE1 122126Z 14015KT 08/M12 A3017 RMK A01 T00751120  RH  024%=      5-min Rain = 0
KLE1 122127Z 14015KT 08/M12 A3017 RMK A01 T00761119  RH  024%=      5-min Rain = 0
KLE1 122128Z 15014KT 07/M12 A3017 RMK A01 T00741120  RH  024%=      5-min Rain = 0
KLE1 122129Z 15014KT 07/M12 A3017 RMK A01 T00731119  RH  024%=      5-min Rain = 0
KLE1 122130Z 15011KT 07/M12 A3017 RMK A01 T00731119  RH  024%=      5-min Rain = 0
KLE1 122131Z 14011KT 07/M12 A3017 RMK A01 T00731119  RH  024%=      5-min Rain = 0
KLE1 122132Z 14014KT 07/M12 A3017 RMK A01 T00731119  RH  024%=      5-min Rain = 0
KLE1 122133Z 14013KT 07/M12 A3017 RMK A01 T00731120  RH  024%=      5-min Rain = 0
KLE1 122134Z 13011KT 07/M12 A3017 RMK A01 T00721120  RH  024%=      5-min Rain = 0
KLE1 122135Z 12013KT 07/M12 A3017 RMK A01 T00721121  RH  024%=      5-min Rain = 0
KLE1 122136Z 13012KT 07/M12 A3017 RMK A01 T00721120  RH  024%=      5-min Rain = 0
KLE1 122137Z 13015KT 07/M12 A3017 RMK A01 T00731119  RH  024%=      5-min Rain = 0
KLE1 122138Z 12013KT 07/M12 A3017 RMK A01 T00731120  RH  024%=      5-min Rain = 0
KLE1 122139Z 12013KT 07/M12 A3017 RMK A01 T00731120  RH  024%=      5-min Rain = 0
KLE1 122140Z 13015KT 07/M12 A3017 RMK A01 T00721120  RH  024%=      5-min Rain = 0
KLE1 122141Z 14013KT 07/M12 A3017 RMK A01 T00721120  RH  024%=      5-min Rain = 0
KLE1 122142Z 13012KT 07/M12 A3017 RMK A01 T00711121  RH  024%=      5-min Rain = 0
KLE1 122143Z 13013KT 07/M12 A3017 RMK A01 T00711119  RH  024%=      5-min Rain = 0
KLE1 122144Z 13014KT 07/M12 A3017 RMK A01 T00721119  RH  024%=      5-min Rain = 0
KLE1 122145Z 13015KT 07/M12 A3017 RMK A01 T00721120  RH  024%=      5-min Rain = 0
KLE1 122146Z 14014KT 07/M12 A3017 RMK A01 T00721120  RH  024%=      5-min Rain = 0
KLE1 122147Z 13014KT 07/M12 A3017 RMK A01 T00721120  RH  024%=      5-min Rain = 0
KLE1 122148Z 13017KT 07/M12 A3017 RMK A01 T00721119  RH  024%=      5-min Rain = 0
KLE1 122149Z 13015KT 07/M12 A3017 RMK A01 T00711121  RH  024%=      5-min Rain = 0
KLE1 122150Z 13013KT 07/M12 A3017 RMK A01 T00701122  RH  024%=      5-min Rain = 0
KLE1 122151Z 13012KT 07/M12 A3017 RMK A01 T00691120  RH  024%=      5-min Rain = 0
KLE1 122152Z 13014KT 07/M12 A3017 RMK A01 T00701120  RH  024%=      5-min Rain = 0
KLE1 122153Z 14012KT 07/M12 A3017 RMK A01 T00701120  RH  024%=      5-min Rain = 0
KLE1 122154Z 14012KT 07/M12 A3017 RMK A01 T00711120  RH  024%=      5-min Rain = 0
KLE1 122155Z 14013KT 07/M12 A3017 RMK A01 T00721120  RH  024%=      5-min Rain = 0
KLE1 122156Z 13013KT 07/M12 A3018 RMK A01 T00711120  RH  024%=      5-min Rain = 0
KLE1 122157Z 12015KT 07/M12 A3017 RMK A01 T00711120  RH  024%=      5-min Rain = 0
KLE1 122158Z 12015KT 07/M12 A3018 RMK A01 T00701121  RH  024%=      5-min Rain = 0
KLE1 122159Z 13014KT 07/M12 A3018 RMK A01 T00691122  RH  024%=      5-min Rain = 0
KLE1 122200Z 13014KT 07/M12 A3018 RMK A01 T00691122  RH  024%=      5-min Rain = 0
KLE1 122201Z 12012KT 07/M12 A3018 RMK A01 T00691122  RH  024%=      5-min Rain = 0
KLE1 122202Z 11014KT 07/M12 A3018 RMK A01 T00701121  RH  024%=      5-min Rain = 0
KLE1 122203Z 12013KT 07/M12 A3018 RMK A01 T00711121  RH  024%=      5-min Rain = 0
KLE1 122204Z 13014KT 07/M12 A3018 RMK A01 T00731120  RH  024%=      5-min Rain = 0
KLE1 122205Z 14012KT 07/M12 A3018 RMK A01 T00741120  RH  024%=      5-min Rain = 0
KLE1 122206Z 15012KT 07/M12 A3018 RMK A01 T00741121  RH  024%=      5-min Rain = 0
KLE1 122207Z 13012KT 07/M12 A3018 RMK A01 T00741121  RH  024%=      5-min Rain = 0
KLE1 122208Z 12013KT 07/M12 A3018 RMK A01 T00741121  RH  024%=      5-min Rain = 0
KLE1 122209Z 12012KT 07/M12 A3018 RMK A01 T00741121  RH  024%=      5-min Rain = 0
KLE1 122210Z 13016KT 07/M12 A3018 RMK A01 T00731121  RH  024%=      5-min Rain = 0
KLE1 122211Z 14015KT 07/M12 A3018 RMK A01 T00731122  RH  024%=      5-min Rain = 0
KLE1 122212Z 13014KT 07/M12 A3018 RMK A01 T00721123  RH  024%=      5-min Rain = 0
KLE1 122213Z 13014KT 07/M12 A3018 RMK A01 T00721122  RH  024%=      5-min Rain = 0
KLE1 122214Z 12013KT 07/M12 A3018 RMK A01 T00701123  RH  024%=      5-min Rain = 0
KLE1 122215Z 12014KT 07/M12 A3018 RMK A01 T00711123  RH  024%=      5-min Rain = 0
KLE1 122216Z 12014KT 07/M12 A3018 RMK A01 T00711122  RH  024%=      5-min Rain = 0
KLE1 122217Z 12015KT 07/M12 A3018 RMK A01 T00711123  RH  024%=      5-min Rain = 0
KLE1 122218Z 12015KT 07/M12 A3018 RMK A01 T00711123  RH  024%=      5-min Rain = 0
KLE1 122219Z 11015KT 07/M12 A3018 RMK A01 T00711123  RH  024%=      5-min Rain = 0
KLE1 122220Z 11016KT 07/M12 A3018 RMK A01 T00701124  RH  024%=      5-min Rain = 0
KLE1 122221Z 12013KT 07/M12 A3018 RMK A01 T00701123  RH  024%=      5-min Rain = 0
KLE1 122222Z 12013KT 07/M12 A3018 RMK A01 T00701123  RH  024%=      5-min Rain = 0
KLE1 122223Z 12013KT 07/M12 A3018 RMK A01 T00711122  RH  024%=      5-min Rain = 0
KLE1 122224Z 10015KT 07/M12 A3018 RMK A01 T00711122  RH  024%=      5-min Rain = 0
KLE1 122225Z 11017KT 07/M12 A3018 RMK A01 T00711123  RH  024%=      5-min Rain = 0
KLE1 122226Z 12014KT 07/M12 A3018 RMK A01 T00701124  RH  024%=      5-min Rain = 0
KLE1 122227Z 11014KT 07/M12 A3018 RMK A01 T00691124  RH  024%=      5-min Rain = 0
KLE1 122228Z 11016KT 07/M12 A3018 RMK A01 T00701123  RH  024%=      5-min Rain = 0
KLE1 122229Z 11013KT 07/M12 A3019 RMK A01 T00691124  RH  024%=      5-min Rain = 0
KLE1 122230Z 12011KT 07/M12 A3019 RMK A01 T00691124  RH  024%=      5-min Rain = 0
KLE1 122231Z 12012KT 07/M12 A3019 RMK A01 T00701123  RH  024%=      5-min Rain = 0
KLE1 122232Z 11013KT 07/M12 A3019 RMK A01 T00711123  RH  024%=      5-min Rain = 0
KLE1 122233Z 11015KT 07/M12 A3019 RMK A01 T00711122  RH  024%=      5-min Rain = 0
KLE1 122234Z 13016KT 07/M12 A3019 RMK A01 T00711123  RH  024%=      5-min Rain = 0
KLE1 122235Z 13014KT 07/M12 A3019 RMK A01 T00691124  RH  024%=      5-min Rain = 0
KLE1 122236Z 12013KT 07/M12 A3019 RMK A01 T00691124  RH  024%=      5-min Rain = 0
KLE1 122237Z 12013KT 07/M12 A3019 RMK A01 T00691123  RH  024%=      5-min Rain = 0
KLE1 122238Z 12016KT 07/M12 A3019 RMK A01 T00691123  RH  024%=      5-min Rain = 0
KLE1 122239Z 11014KT 07/M12 A3019 RMK A01 T00691124  RH  024%=      5-min Rain = 0
KLE1 122240Z 12014KT 07/M12 A3019 RMK A01 T00691124  RH  024%=      5-min Rain = 0
KLE1 122241Z 12014KT 07/M12 A3019 RMK A01 T00691124  RH  024%=      5-min Rain = 0
KLE1 122242Z 12012KT 07/M12 A302 RMK A01 T00691124  RH  024%=      5-min Rain = 0
KLE1 122243Z 12014KT 07/M12 A302 RMK A01 T00691124  RH  024%=      5-min Rain = 0
KLE1 122244Z 11014KT 07/M12 A302 RMK A01 T00691124  RH  024%=      5-min Rain = 0
KLE1 122245Z 11014KT 07/M12 A302 RMK A01 T00691124  RH  024%=      5-min Rain = 0
KLE1 122246Z 11013KT 07/M12 A302 RMK A01 T00681124  RH  024%=      5-min Rain = 0
KLE1 122247Z 11014KT 07/M12 A302 RMK A01 T00681124  RH  024%=      5-min Rain = 0
KLE1 122248Z 11015KT 07/M13 A302 RMK A01 T00681125  RH  024%=      5-min Rain = 0
KLE1 122249Z 11015KT 07/M13 A302 RMK A01 T00671125  RH  024%=      5-min Rain = 0
KLE1 122250Z 11015KT 07/M13 A302 RMK A01 T00671126  RH  024%=      5-min Rain = 0
KLE1 122251Z 11015KT 07/M13 A302 RMK A01 T00661126  RH  024%=      5-min Rain = 0
KLE1 122252Z 10016KT 07/M13 A302 RMK A01 T00661126  RH  024%=      5-min Rain = 0
KLE1 122253Z 11015KT 07/M13 A302 RMK A01 T00651126  RH  024%=      5-min Rain = 0
KLE1 122254Z 10016KT 07/M13 A302 RMK A01 T00651126  RH  024%=      5-min Rain = 0
KLE1 122255Z 11016KT 07/M13 A302 RMK A01 T00651126  RH  024%=      5-min Rain = 0
KLE1 122256Z 12016KT 07/M13 A302 RMK A01 T00651125  RH  024%=      5-min Rain = 0
KLE1 122257Z 12014KT 06/M13 A302 RMK A01 T00641125  RH  024%=      5-min Rain = 0
KLE1 122258Z 11012KT 06/M13 A302 RMK A01 T00641125  RH  024%=      5-min Rain = 0
KLE1 122259Z 11012KT 06/M13 A302 RMK A01 T00641125  RH  024%=      5-min Rain = 0
KLE1 122300Z 11015KT 06/M13 A302 RMK A01 T00631126  RH  024%=      5-min Rain = 0
KLE1 122301Z 10015KT 06/M13 A302 RMK A01 T00621127  RH  024%=      5-min Rain = 0
KLE1 122302Z 11014KT 06/M13 A302 RMK A01 T00611128  RH  024%=      5-min Rain = 0
KLE1 122303Z 11017KT 06/M13 A302 RMK A01 T00611127  RH  025%=      5-min Rain = 0
KLE1 122304Z 11016KT 06/M13 A302 RMK A01 T00601128  RH  025%=      5-min Rain = 0
KLE1 122305Z 11014KT 06/M13 A3021 RMK A01 T00601128  RH  025%=      5-min Rain = 0
KLE1 122306Z 10013KT 06/M13 A3021 RMK A01 T00601127  RH  025%=      5-min Rain = 0
KLE1 122307Z 11014KT 06/M13 A3021 RMK A01 T00601127  RH  025%=      5-min Rain = 0
KLE1 122308Z 11012KT 06/M13 A3021 RMK A01 T00601128  RH  025%=      5-min Rain = 0
KLE1 122309Z 11014KT 06/M13 A3021 RMK A01 T00601127  RH  025%=      5-min Rain = 0
KLE1 122310Z 12013KT 06/M13 A3021 RMK A01 T00611126  RH  025%=      5-min Rain = 0
KLE1 122311Z 11015KT 06/M13 A302 RMK A01 T00601127  RH  025%=      5-min Rain = 0
KLE1 122312Z 11015KT 06/M13 A302 RMK A01 T00601126  RH  025%=      5-min Rain = 0
KLE1 122313Z 11014KT 06/M13 A302 RMK A01 T00601127  RH  025%=      5-min Rain = 0
KLE1 122314Z 11013KT 06/M13 A302 RMK A01 T00591128  RH  025%=      5-min Rain = 0
KLE1 122315Z 11014KT 06/M13 A302 RMK A01 T00581128  RH  025%=      5-min Rain = 0
KLE1 122316Z 11014KT 06/M13 A302 RMK A01 T00571128  RH  025%=      5-min Rain = 0
KLE1 122317Z 11012KT 06/M13 A302 RMK A01 T00561128  RH  025%=      5-min Rain = 0
KLE1 122318Z 11015KT 06/M13 A302 RMK A01 T00551128  RH  025%=      5-min Rain = 0
KLE1 122319Z 11014KT 05/M13 A302 RMK A01 T00541128  RH  025%=      5-min Rain = 0
KLE1 122320Z 11014KT 06/M13 A302 RMK A01 T00551128  RH  025%=      5-min Rain = 0
KLE1 122321Z 11014KT 06/M13 A3021 RMK A01 T00551128  RH  025%=      5-min Rain = 0
KLE1 122322Z 11015KT 05/M13 A3021 RMK A01 T00541128  RH  025%=      5-min Rain = 0
KLE1 122323Z 11014KT 05/M13 A3021 RMK A01 T00541129  RH  025%=      5-min Rain = 0
KLE1 122324Z 10014KT 05/M13 A3021 RMK A01 T00531129  RH  025%=      5-min Rain = 0
KLE1 122325Z 10013KT 05/M13 A3021 RMK A01 T00531129  RH  026%=      5-min Rain = 0
KLE1 122326Z 11012KT 05/M13 A3021 RMK A01 T00521128  RH  026%=      5-min Rain = 0
KLE1 122327Z 10014KT 05/M13 A3021 RMK A01 T00521128  RH  026%=      5-min Rain = 0
KLE1 122328Z 10013KT 05/M13 A3021 RMK A01 T00511129  RH  026%=      5-min Rain = 0
KLE1 122329Z 11013KT 05/M13 A3021 RMK A01 T00501129  RH  026%=      5-min Rain = 0
KLE1 122330Z 11013KT 05/M13 A3021 RMK A01 T00501129  RH  026%=      5-min Rain = 0
KLE1 122331Z 11013KT 05/M13 A3021 RMK A01 T00501128  RH  026%=      5-min Rain = 0
KLE1 122332Z 10012KT 05/M13 A3021 RMK A01 T00501128  RH  026%=      5-min Rain = 0
KLE1 122333Z 10013KT 05/M13 A3021 RMK A01 T00491129  RH  026%=      5-min Rain = 0
KLE1 122334Z 11014KT 05/M13 A3021 RMK A01 T00491129  RH  026%=      5-min Rain = 0
KLE1 122335Z 11013KT 05/M13 A3021 RMK A01 T00491128  RH  026%=      5-min Rain = 0
KLE1 122336Z 11012KT 05/M13 A3021 RMK A01 T00481129  RH  026%=      5-min Rain = 0
KLE1 122337Z 11013KT 05/M13 A3021 RMK A01 T00481130  RH  026%=      5-min Rain = 0
KLE1 122338Z 11012KT 05/M13 A3021 RMK A01 T00471130  RH  027%=      5-min Rain = 0
KLE1 122339Z 11013KT 05/M13 A3021 RMK A01 T00471129  RH  027%=      5-min Rain = 0
KLE1 122340Z 11012KT 05/M13 A3021 RMK A01 T00461129  RH  027%=      5-min Rain = 0
KLE1 122341Z 11013KT 05/M13 A3021 RMK A01 T00461129  RH  027%=      5-min Rain = 0
KLE1 122342Z 11012KT 05/M13 A3021 RMK A01 T00451129  RH  027%=      5-min Rain = 0
KLE1 122343Z 11012KT 05/M13 A3021 RMK A01 T00451130  RH  027%=      5-min Rain = 0
KLE1 122344Z 11012KT 04/M13 A3021 RMK A01 T00441129  RH  027%=      5-min Rain = 0
KLE1 122345Z 11013KT 04/M13 A3021 RMK A01 T00441129  RH  027%=      5-min Rain = 0
KLE1 122346Z 11013KT 04/M13 A3021 RMK A01 T00431129  RH  027%=      5-min Rain = 0
KLE1 122347Z 11013KT 04/M13 A3021 RMK A01 T00431130  RH  027%=      5-min Rain = 0
KLE1 122348Z 11013KT 04/M13 A3021 RMK A01 T00431129  RH  027%=      5-min Rain = 0
KLE1 122349Z 11013KT 04/M13 A3021 RMK A01 T00421130  RH  027%=      5-min Rain = 0
KLE1 122350Z 11015KT 04/M13 A3021 RMK A01 T00421130  RH  028%=      5-min Rain = 0
KLE1 122351Z 11014KT 04/M13 A3021 RMK A01 T00421129  RH  028%=      5-min Rain = 0
KLE1 122352Z 11014KT 04/M13 A3021 RMK A01 T00421129  RH  028%=      5-min Rain = 0
KLE1 122353Z 11012KT 04/M13 A3021 RMK A01 T00411130  RH  028%=      5-min Rain = 0
KLE1 122354Z 10013KT 04/M13 A3021 RMK A01 T00401130  RH  028%=      5-min Rain = 0
KLE1 122355Z 09012KT 04/M13 A3021 RMK A01 T00401129  RH  028%=      5-min Rain = 0
KLE1 122356Z 09013KT 04/M13 A3021 RMK A01 T00391129  RH  028%=      5-min Rain = 0
KLE1 122357Z 09012KT 04/M13 A3021 RMK A01 T00371128  RH  029%=      5-min Rain = 0
KLE1 122358Z 09012KT 04/M13 A3022 RMK A01 T00361128  RH  029%=      5-min Rain = 0
KLE1 122359Z 09011KT 04/M13 A3022 RMK A01 T00351128  RH  029%=      5-min Rain = 0
KLE1 130000Z 08012KT 03/M13 A3022 RMK A01 T00331128  RH  029%=      5-min Rain = 0
KLE1 130001Z 08013KT 03/M13 A3022 RMK A01 T00321128  RH  030%=      5-min Rain = 0
KLE1 130002Z 08013KT 03/M13 A3022 RMK A01 T00321128  RH  030%=      5-min Rain = 0
KLE1 130003Z 08014KT 03/M13 A3022 RMK A01 T00311129  RH  030%=      5-min Rain = 0
KLE1 130004Z 09014KT 03/M13 A3022 RMK A01 T00301129  RH  030%=      5-min Rain = 0
KLE1 130005Z 08013KT 03/M13 A3023 RMK A01 T00301128  RH  030%=      5-min Rain = 0
KLE1 130006Z 08013KT 03/M13 A3023 RMK A01 T00301129  RH  030%=      5-min Rain = 0
KLE1 130007Z 08012KT 03/M13 A3023 RMK A01 T00291129  RH  030%=      5-min Rain = 0
KLE1 130008Z 08013KT 03/M13 A3023 RMK A01 T00281130  RH  030%=      5-min Rain = 0
KLE1 130009Z 08013KT 03/M13 A3023 RMK A01 T00271129  RH  030%=      5-min Rain = 0
KLE1 130010Z 08013KT 03/M13 A3023 RMK A01 T00271129  RH  031%=      5-min Rain = 0
KLE1 130011Z 08012KT 03/M13 A3024 RMK A01 T00271129  RH  031%=      5-min Rain = 0
KLE1 130012Z 08012KT 03/M13 A3024 RMK A01 T00261130  RH  031%=      5-min Rain = 0
KLE1 130013Z 07012KT 03/M13 A3024 RMK A01 T00251131  RH  031%=      5-min Rain = 0
KLE1 130014Z 07014KT 03/M13 A3024 RMK A01 T00251130  RH  031%=      5-min Rain = 0
KLE1 130015Z 07012KT 03/M13 A3024 RMK A01 T00251130  RH  031%=      5-min Rain = 0
KLE1 130016Z 07013KT 03/M13 A3024 RMK A01 T00251130  RH  031%=      5-min Rain = 0
KLE1 130017Z 07014KT 03/M13 A3025 RMK A01 T00251131  RH  031%=      5-min Rain = 0
KLE1 130018Z 07014KT 03/M13 A3025 RMK A01 T00251131  RH  031%=      5-min Rain = 0
KLE1 130019Z 07014KT 03/M13 A3025 RMK A01 T00251131  RH  031%=      5-min Rain = 0
KLE1 130020Z 07013KT 03/M13 A3025 RMK A01 T00251131  RH  031%=      5-min Rain = 0
KLE1 130021Z 07013KT 03/M13 A3025 RMK A01 T00251131  RH  031%=      5-min Rain = 0
KLE1 130022Z 08015KT 02/M13 A3025 RMK A01 T00241131  RH  031%=      5-min Rain = 0
KLE1 130023Z 07013KT 02/M13 A3025 RMK A01 T00231131  RH  031%=      5-min Rain = 0
KLE1 130024Z 07013KT 02/M13 A3025 RMK A01 T00231131  RH  031%=      5-min Rain = 0
KLE1 130025Z 08013KT 02/M13 A3025 RMK A01 T00231132  RH  031%=      5-min Rain = 0
KLE1 130026Z 08014KT 02/M13 A3025 RMK A01 T00221132  RH  031%=      5-min Rain = 0
KLE1 130027Z 08013KT 02/M13 A3025 RMK A01 T00221132  RH  031%=      5-min Rain = 0
KLE1 130028Z 08013KT 02/M13 A3025 RMK A01 T00211133  RH  031%=      5-min Rain = 0
KLE1 130029Z 08013KT 02/M13 A3025 RMK A01 T00211132  RH  031%=      5-min Rain = 0
KLE1 130030Z 08015KT 02/M13 A3025 RMK A01 T00211133  RH  031%=      5-min Rain = 0
KLE1 130031Z 08013KT 02/M13 A3025 RMK A01 T00201133  RH  031%=      5-min Rain = 0
KLE1 130032Z 08014KT 02/M13 A3026 RMK A01 T00201133  RH  031%=      5-min Rain = 0
KLE1 130033Z 08014KT 02/M13 A3026 RMK A01 T00201133  RH  031%=      5-min Rain = 0
KLE1 130034Z 08014KT 02/M13 A3026 RMK A01 T00201133  RH  031%=      5-min Rain = 0
KLE1 130035Z 08014KT 02/M13 A3026 RMK A01 T00201133  RH  031%=      5-min Rain = 0
KLE1 130036Z 08014KT 02/M13 A3026 RMK A01 T00191134  RH  031%=      5-min Rain = 0
KLE1 130037Z 08013KT 02/M13 A3026 RMK A01 T00191134  RH  031%=      5-min Rain = 0
KLE1 130038Z 08013KT 02/M13 A3026 RMK A01 T00191134  RH  031%=      5-min Rain = 0
KLE1 130039Z 08012KT 02/M14 A3026 RMK A01 T00181135  RH  031%=      5-min Rain = 0
KLE1 130040Z 07011KT 02/M14 A3027 RMK A01 T00171135  RH  031%=      5-min Rain = 0
KLE1 130041Z 07012KT 02/M14 A3027 RMK A01 T00161135  RH  032%=      5-min Rain = 0
KLE1 130042Z 08013KT 02/M14 A3027 RMK A01 T00151136  RH  032%=      5-min Rain = 0
KLE1 130043Z 08014KT 02/M14 A3027 RMK A01 T00151135  RH  032%=      5-min Rain = 0
KLE1 130044Z 07013KT 02/M14 A3027 RMK A01 T00151135  RH  032%=      5-min Rain = 0
KLE1 130045Z 08012KT 02/M14 A3027 RMK A01 T00161135  RH  032%=      5-min Rain = 0
KLE1 130046Z 07012KT 02/M14 A3027 RMK A01 T00161135  RH  032%=      5-min Rain = 0
KLE1 130047Z 07013KT 02/M14 A3027 RMK A01 T00151136  RH  032%=      5-min Rain = 0
KLE1 130048Z 07012KT 02/M14 A3027 RMK A01 T00151136  RH  032%=      5-min Rain = 0
KLE1 130049Z 07012KT 02/M14 A3028 RMK A01 T00151136  RH  032%=      5-min Rain = 0
KLE1 130050Z 08013KT 01/M14 A3028 RMK A01 T00141136  RH  032%=      5-min Rain = 0
KLE1 130051Z 08013KT 01/M14 A3028 RMK A01 T00141136  RH  032%=      5-min Rain = 0
KLE1 130052Z 08013KT 01/M14 A3028 RMK A01 T00141136  RH  032%=      5-min Rain = 0
KLE1 130053Z 08013KT 01/M14 A3028 RMK A01 T00141136  RH  032%=      5-min Rain = 0
KLE1 130054Z 08012KT 01/M14 A3028 RMK A01 T00141136  RH  032%=      5-min Rain = 0
KLE1 130055Z 07011KT 01/M14 A3028 RMK A01 T00131136  RH  032%=      5-min Rain = 0
KLE1 130056Z 07012KT 01/M14 A3028 RMK A01 T00121137  RH  032%=      5-min Rain = 0
KLE1 130057Z 07014KT 01/M14 A3028 RMK A01 T00111136  RH  032%=      5-min Rain = 0
KLE1 130058Z 07011KT 01/M14 A3028 RMK A01 T00111137  RH  032%=      5-min Rain = 0
KLE1 130059Z 08013KT 01/M14 A3028 RMK A01 T00111137  RH  032%=      5-min Rain = 0
KLE1 130100Z 08013KT 01/M14 A3028 RMK A01 T00111137  RH  032%=      5-min Rain = 0
KLE1 130101Z 07013KT 01/M14 A3028 RMK A01 T00111136  RH  032%=      5-min Rain = 0
KLE1 130102Z 08012KT 01/M14 A3028 RMK A01 T00101137  RH  032%=      5-min Rain = 0
KLE1 130103Z 08013KT 01/M14 A3028 RMK A01 T00101137  RH  032%=      5-min Rain = 0
KLE1 130104Z 08013KT 01/M14 A3028 RMK A01 T00101137  RH  033%=      5-min Rain = 0
KLE1 130105Z 07014KT 01/M14 A3028 RMK A01 T00101137  RH  033%=      5-min Rain = 0
KLE1 130106Z 07012KT 01/M14 A3029 RMK A01 T00101137  RH  033%=      5-min Rain = 0
KLE1 130107Z 07013KT 01/M14 A3029 RMK A01 T00101137  RH  033%=      5-min Rain = 0
KLE1 130108Z 07012KT 01/M14 A3029 RMK A01 T00091137  RH  033%=      5-min Rain = 0
KLE1 130109Z 08012KT 01/M14 A3029 RMK A01 T00091137  RH  033%=      5-min Rain = 0
KLE1 130110Z 07012KT 01/M14 A3029 RMK A01 T00081137  RH  033%=      5-min Rain = 0
KLE1 130111Z 07012KT 01/M14 A3029 RMK A01 T00081137  RH  033%=      5-min Rain = 0
KLE1 130112Z 07012KT 01/M14 A303 RMK A01 T00081137  RH  033%=      5-min Rain = 0
KLE1 130113Z 07012KT 01/M14 A303 RMK A01 T00071137  RH  033%=      5-min Rain = 0
KLE1 130114Z 07012KT 01/M14 A303 RMK A01 T00071137  RH  033%=      5-min Rain = 0
KLE1 130115Z 07013KT 01/M14 A303 RMK A01 T00071137  RH  033%=      5-min Rain = 0
KLE1 130116Z 07012KT 01/M14 A303 RMK A01 T00071137  RH  033%=      5-min Rain = 0
KLE1 130117Z 07011KT 01/M14 A303 RMK A01 T00071137  RH  033%=      5-min Rain = 0
KLE1 130118Z 07012KT 01/M14 A303 RMK A01 T00071137  RH  033%=      5-min Rain = 0
KLE1 130119Z 07011KT 01/M14 A303 RMK A01 T00071137  RH  033%=      5-min Rain = 0
KLE1 130120Z 07012KT 01/M14 A303 RMK A01 T00071137  RH  033%=      5-min Rain = 0
KLE1 130121Z 07010KT 01/M14 A303 RMK A01 T00061137  RH  033%=      5-min Rain = 0
KLE1 130122Z 07010KT 01/M14 A303 RMK A01 T00061137  RH  033%=      5-min Rain = 0
KLE1 130123Z 07011KT 01/M14 A303 RMK A01 T00051138  RH  033%=      5-min Rain = 0
KLE1 130124Z 08010KT 01/M14 A303 RMK A01 T00051137  RH  034%=      5-min Rain = 0
KLE1 130125Z 07011KT 01/M14 A303 RMK A01 T00051137  RH  034%=      5-min Rain = 0
KLE1 130126Z 07011KT 01/M14 A303 RMK A01 T00051137  RH  034%=      5-min Rain = 0
KLE1 130127Z 07011KT 01/M14 A3031 RMK A01 T00051137  RH  034%=      5-min Rain = 0
KLE1 130128Z 07011KT 01/M14 A3031 RMK A01 T00051137  RH  034%=      5-min Rain = 0
KLE1 130129Z 07011KT 01/M14 A3031 RMK A01 T00051137  RH  034%=      5-min Rain = 0
KLE1 130130Z 08011KT 00/M14 A3031 RMK A01 T00041137  RH  034%=      5-min Rain = 0
KLE1 130131Z 07011KT 00/M14 A3031 RMK A01 T00041137  RH  034%=      5-min Rain = 0
KLE1 130132Z 07013KT 01/M14 A3031 RMK A01 T00051136  RH  034%=      5-min Rain = 0
KLE1 130133Z 07011KT 01/M14 A3031 RMK A01 T00051136  RH  034%=      5-min Rain = 0
KLE1 130134Z 07011KT 01/M14 A3031 RMK A01 T00061136  RH  034%=      5-min Rain = 0
KLE1 130135Z 07011KT 01/M14 A3032 RMK A01 T00051136  RH  034%=      5-min Rain = 0
KLE1 130136Z 07009KT 01/M14 A3032 RMK A01 T00051136  RH  034%=      5-min Rain = 0
KLE1 130137Z 07010KT 00/M14 A3032 RMK A01 T00041136  RH  034%=      5-min Rain = 0
KLE1 130138Z 06010KT 00/M14 A3032 RMK A01 T00041136  RH  034%=      5-min Rain = 0
KLE1 130139Z 06010KT 00/M14 A3033 RMK A01 T00041136  RH  034%=      5-min Rain = 0
KLE1 130140Z 07011KT 00/M14 A3033 RMK A01 T00041136  RH  034%=      5-min Rain = 0
KLE1 130141Z 07012KT 00/M14 A3033 RMK A01 T00041136  RH  034%=      5-min Rain = 0
KLE1 130142Z 07012KT 00/M14 A3033 RMK A01 T00041136  RH  034%=      5-min Rain = 0
KLE1 130143Z 07012KT 01/M14 A3033 RMK A01 T00051136  RH  034%=      5-min Rain = 0
KLE1 130144Z 07012KT 01/M14 A3033 RMK A01 T00051136  RH  034%=      5-min Rain = 0
KLE1 130145Z 07011KT 01/M14 A3033 RMK A01 T00051136  RH  034%=      5-min Rain = 0
KLE1 130146Z 07010KT 00/M14 A3033 RMK A01 T00041136  RH  034%=      5-min Rain = 0
KLE1 130147Z 07010KT 00/M14 A3033 RMK A01 T00041136  RH  034%=      5-min Rain = 0
KLE1 130148Z 07011KT 00/M14 A3033 RMK A01 T00041136  RH  034%=      5-min Rain = 0
KLE1 130149Z 07011KT 00/M14 A3033 RMK A01 T00041136  RH  034%=      5-min Rain = 0
KLE1 130150Z 07012KT 00/M14 A3033 RMK A01 T00041136  RH  034%=      5-min Rain = 0
KLE1 130151Z 07011KT 00/M14 A3033 RMK A01 T00041136  RH  034%=      5-min Rain = 0
KLE1 130152Z 07011KT 00/M14 A3033 RMK A01 T00041136  RH  034%=      5-min Rain = 0
KLE1 130153Z 07011KT 00/M14 A3033 RMK A01 T00041136  RH  034%=      5-min Rain = 0
KLE1 130154Z 07010KT 00/M14 A3033 RMK A01 T00041136  RH  034%=      5-min Rain = 0
KLE1 130155Z 07010KT 00/M14 A3033 RMK A01 T00041136  RH  034%=      5-min Rain = 0
KLE1 130156Z 07010KT 00/M14 A3033 RMK A01 T00041136  RH  034%=      5-min Rain = 0
KLE1 130157Z 07009KT 00/M14 A3033 RMK A01 T00041136  RH  034%=      5-min Rain = 0
KLE1 130158Z 07009KT 00/M14 A3033 RMK A01 T00041136  RH  034%=      5-min Rain = 0
KLE1 130159Z 08009KT 00/M14 A3033 RMK A01 T00031136  RH  034%=      5-min Rain = 0
KLE1 130200Z 08010KT 00/M14 A3033 RMK A01 T00031136  RH  034%=      5-min Rain = 0
KLE1 130201Z 08009KT 00/M14 A3034 RMK A01 T00031136  RH  034%=      5-min Rain = 0
KLE1 130202Z 08010KT 00/M14 A3034 RMK A01 T00031136  RH  034%=      5-min Rain = 0
KLE1 130203Z 08009KT 00/M14 A3034 RMK A01 T00021137  RH  034%=      5-min Rain = 0
KLE1 130204Z 08009KT 00/M14 A3034 RMK A01 T00021137  RH  035%=      5-min Rain = 0
KLE1 130205Z 08010KT 00/M14 A3033 RMK A01 T00011137  RH  035%=      5-min Rain = 0
KLE1 130206Z 08009KT 00/M14 A3033 RMK A01 T00011136  RH  035%=      5-min Rain = 0
KLE1 130207Z 08010KT 00/M14 A3033 RMK A01 T00011136  RH  035%=      5-min Rain = 0
KLE1 130208Z 08009KT 00/M14 A3033 RMK A01 T00011136  RH  035%=      5-min Rain = 0
KLE1 130209Z 08009KT 00/14 A3033 RMK A01 T00000-136  RH  035%=      5-min Rain = 0
KLE1 130210Z 08009KT 00/14 A3033 RMK A01 T00-00-136  RH  035%=      5-min Rain = 0
KLE1 130211Z 09009KT 00/14 A3033 RMK A01 T00-00-136  RH  035%=      5-min Rain = 0
KLE1 130212Z 08008KT M00/M14 A3034 RMK A01 T10011136  RH  035%=      5-min Rain = 0
KLE1 130213Z 09007KT M00/M14 A3034 RMK A01 T10011136  RH  035%=      5-min Rain = 0
KLE1 130214Z 09008KT M00/M14 A3034 RMK A01 T10021137  RH  035%=      5-min Rain = 0
KLE1 130215Z 09008KT M00/M14 A3034 RMK A01 T10021136  RH  035%=      5-min Rain = 0
KLE1 130216Z 09009KT M00/M14 A3034 RMK A01 T10021136  RH  036%=      5-min Rain = 0
KLE1 130217Z 09008KT M00/M14 A3034 RMK A01 T10021137  RH  035%=      5-min Rain = 0
KLE1 130218Z 09007KT M00/M14 A3034 RMK A01 T10021137  RH  035%=      5-min Rain = 0
KLE1 130219Z 09007KT M00/M14 A3034 RMK A01 T10021136  RH  035%=      5-min Rain = 0
KLE1 130220Z 09008KT M00/M14 A3034 RMK A01 T10021137  RH  035%=      5-min Rain = 0
KLE1 130221Z 09008KT M00/M14 A3034 RMK A01 T10021137  RH  035%=      5-min Rain = 0
KLE1 130222Z 09008KT M00/M14 A3034 RMK A01 T10021137  RH  035%=      5-min Rain = 0
KLE1 130223Z 09008KT M00/M14 A3034 RMK A01 T10011136  RH  035%=      5-min Rain = 0
KLE1 130224Z 09008KT M00/M14 A3034 RMK A01 T10011136  RH  035%=      5-min Rain = 0
KLE1 130225Z 09009KT M00/M14 A3034 RMK A01 T10011136  RH  035%=      5-min Rain = 0
KLE1 130226Z 09008KT M00/M14 A3034 RMK A01 T10011136  RH  035%=      5-min Rain = 0
KLE1 130227Z 09008KT M00/M14 A3034 RMK A01 T10011136  RH  035%=      5-min Rain = 0
KLE1 130228Z 09008KT M00/M14 A3035 RMK A01 T10021137  RH  035%=      5-min Rain = 0
KLE1 130229Z 09008KT M00/M14 A3035 RMK A01 T10021136  RH  036%=      5-min Rain = 0
KLE1 130230Z 08008KT M00/M14 A3035 RMK A01 T10021136  RH  036%=      5-min Rain = 0
KLE1 130231Z 08007KT M00/M14 A3035 RMK A01 T10021136  RH  036%=      5-min Rain = 0
KLE1 130232Z 08008KT M00/M14 A3035 RMK A01 T10021136  RH  036%=      5-min Rain = 0
KLE1 130233Z 08008KT M00/M14 A3035 RMK A01 T10021136  RH  036%=      5-min Rain = 0
KLE1 130234Z 08007KT M00/M14 A3036 RMK A01 T10021136  RH  036%=      5-min Rain = 0
KLE1 130235Z 08007KT M00/M14 A3036 RMK A01 T10031136  RH  036%=      5-min Rain = 0
KLE1 130236Z 07007KT M00/M14 A3036 RMK A01 T10031136  RH  036%=      5-min Rain = 0
KLE1 130237Z 07007KT M00/M14 A3036 RMK A01 T10031137  RH  036%=      5-min Rain = 0
KLE1 130238Z 07006KT M00/M14 A3036 RMK A01 T10031136  RH  036%=      5-min Rain = 0
KLE1 130239Z 06006KT M00/M14 A3037 RMK A01 T10041137  RH  036%=      5-min Rain = 0
KLE1 130240Z 06005KT M00/M14 A3037 RMK A01 T10041137  RH  036%=      5-min Rain = 0
KLE1 130241Z 06005KT M01/M14 A3037 RMK A01 T10051137  RH  036%=      5-min Rain = 0
KLE1 130242Z 06005KT M00/M14 A3037 RMK A01 T10041137  RH  036%=      5-min Rain = 0
KLE1 130243Z 06005KT M01/M14 A3037 RMK A01 T10051138  RH  036%=      5-min Rain = 0
KLE1 130244Z 06005KT M01/M14 A3037 RMK A01 T10051138  RH  036%=      5-min Rain = 0
KLE1 130245Z 05005KT M01/M14 A3037 RMK A01 T10051138  RH  036%=      5-min Rain = 0
KLE1 130246Z 06005KT M01/M14 A3037 RMK A01 T10061138  RH  036%=      5-min Rain = 0
KLE1 130247Z 06005KT M01/M14 A3037 RMK A01 T10061138  RH  036%=      5-min Rain = 0
KLE1 130248Z 06005KT M01/M14 A3037 RMK A01 T10061138  RH  036%=      5-min Rain = 0
KLE1 130249Z 07005KT M01/M14 A3037 RMK A01 T10071139  RH  036%=      5-min Rain = 0
KLE1 130250Z 07006KT M01/M14 A3037 RMK A01 T10071139  RH  036%=      5-min Rain = 0
KLE1 130251Z 07005KT M01/M14 A3037 RMK A01 T10071139  RH  036%=      5-min Rain = 0
KLE1 130252Z 06005KT M01/M14 A3037 RMK A01 T10081139  RH  036%=      5-min Rain = 0
KLE1 130253Z 06004KT M01/M14 A3037 RMK A01 T10081139  RH  036%=      5-min Rain = 0
KLE1 130254Z 06005KT M01/M14 A3037 RMK A01 T10081139  RH  036%=      5-min Rain = 0
KLE1 130255Z 06004KT M01/M14 A3037 RMK A01 T10071139  RH  036%=      5-min Rain = 0
KLE1 130256Z 06004KT M01/M14 A3037 RMK A01 T10071139  RH  036%=      5-min Rain = 0
KLE1 130257Z 05004KT M01/M14 A3038 RMK A01 T10091140  RH  036%=      5-min Rain = 0
KLE1 130258Z 05004KT M01/M14 A3038 RMK A01 T10091140  RH  036%=      5-min Rain = 0
KLE1 130259Z 05005KT M01/M14 A3038 RMK A01 T10101140  RH  036%=      5-min Rain = 0
KLE1 130300Z 05004KT M01/M14 A3038 RMK A01 T10101140  RH  037%=      5-min Rain = 0
KLE1 130301Z 06005KT M01/M14 A3038 RMK A01 T10111140  RH  037%=      5-min Rain = 0
KLE1 130302Z 05004KT M01/M14 A3039 RMK A01 T10111140  RH  037%=      5-min Rain = 0
KLE1 130303Z 05004KT M01/M14 A3039 RMK A01 T10121140  RH  037%=      5-min Rain = 0
KLE1 130304Z 06005KT M01/M14 A3039 RMK A01 T10121140  RH  037%=      5-min Rain = 0
KLE1 130305Z 06005KT M01/M14 A3039 RMK A01 T10121140  RH  037%=      5-min Rain = 0
KLE1 130306Z 07005KT M01/M14 A3038 RMK A01 T10121140  RH  037%=      5-min Rain = 0
KLE1 130307Z 08005KT M01/M14 A3038 RMK A01 T10131141  RH  037%=      5-min Rain = 0
KLE1 130308Z 08004KT M01/M14 A3038 RMK A01 T10131141  RH  037%=      5-min Rain = 0
KLE1 130309Z 09004KT M01/M14 A3038 RMK A01 T10141141  RH  037%=      5-min Rain = 0
KLE1 130310Z 09003KT M01/M14 A3038 RMK A01 T10141141  RH  038%=      5-min Rain = 0
KLE1 130311Z 09003KT M02/M14 A3038 RMK A01 T10151141  RH  038%=      5-min Rain = 0
KLE1 130312Z 08003KT M02/M14 A3038 RMK A01 T10151141  RH  038%=      5-min Rain = 0
KLE1 130313Z 07003KT M01/M14 A3039 RMK A01 T10141140  RH  038%=      5-min Rain = 0
KLE1 130314Z 07003KT M01/M14 A3039 RMK A01 T10141140  RH  038%=      5-min Rain = 0
KLE1 130315Z 07003KT M01/M14 A3039 RMK A01 T10131139  RH  038%=      5-min Rain = 0
KLE1 130316Z 07003KT M01/M14 A3039 RMK A01 T10121139  RH  037%=      5-min Rain = 0
KLE1 130317Z 06002KT M01/M14 A3039 RMK A01 T10121139  RH  037%=      5-min Rain = 0
KLE1 130318Z 06003KT M01/M14 A3039 RMK A01 T10121139  RH  037%=      5-min Rain = 0
KLE1 130319Z 05003KT M01/M14 A3039 RMK A01 T10111139  RH  037%=      5-min Rain = 0
KLE1 130320Z 05003KT M01/M14 A3039 RMK A01 T10111139  RH  037%=      5-min Rain = 0
KLE1 130321Z 06003KT M01/M14 A3039 RMK A01 T10101139  RH  037%=      5-min Rain = 0
KLE1 130322Z 06003KT M01/M14 A304 RMK A01 T10101140  RH  037%=      5-min Rain = 0
KLE1 130323Z 05003KT M01/M14 A304 RMK A01 T10111140  RH  037%=      5-min Rain = 0
KLE1 130324Z 05003KT M01/M14 A304 RMK A01 T10111140  RH  037%=      5-min Rain = 0
KLE1 130325Z 04003KT M01/M14 A304 RMK A01 T10111140  RH  037%=      5-min Rain = 0
KLE1 130326Z 05003KT M01/M14 A304 RMK A01 T10111140  RH  037%=      5-min Rain = 0
KLE1 130327Z 05003KT M01/M14 A304 RMK A01 T10111139  RH  037%=      5-min Rain = 0
KLE1 130328Z 04003KT M01/M14 A304 RMK A01 T10111139  RH  037%=      5-min Rain = 0
KLE1 130329Z 04003KT M01/M14 A304 RMK A01 T10111140  RH  037%=      5-min Rain = 0
KLE1 130330Z 03003KT M01/M14 A304 RMK A01 T10111140  RH  037%=      5-min Rain = 0
KLE1 130331Z 03003KT M01/M14 A304 RMK A01 T10121140  RH  037%=      5-min Rain = 0
KLE1 130332Z 04002KT M01/M14 A304 RMK A01 T10131141  RH  037%=      5-min Rain = 0
KLE1 130333Z 04002KT M01/M14 A304 RMK A01 T10131141  RH  037%=      5-min Rain = 0
KLE1 130334Z 04003KT M01/M14 A304 RMK A01 T10131140  RH  037%=      5-min Rain = 0
KLE1 130335Z 04003KT M01/M14 A304 RMK A01 T10131140  RH  037%=      5-min Rain = 0
KLE1 130336Z 03003KT M01/M14 A3041 RMK A01 T10131140  RH  037%=      5-min Rain = 0
KLE1 130337Z 03003KT M01/M14 A3041 RMK A01 T10131140  RH  037%=      5-min Rain = 0
KLE1 130338Z 03003KT M01/M14 A3041 RMK A01 T10131140  RH  037%=      5-min Rain = 0
KLE1 130339Z 03003KT M01/M14 A3041 RMK A01 T10131140  RH  037%=      5-min Rain = 0
KLE1 130340Z 03004KT M01/M14 A3041 RMK A01 T10131140  RH  037%=      5-min Rain = 0
KLE1 130341Z 02004KT M01/M14 A3041 RMK A01 T10131140  RH  037%=      5-min Rain = 0
KLE1 130342Z 03004KT M01/M14 A3041 RMK A01 T10131139  RH  038%=      5-min Rain = 0
KLE1 130343Z 03004KT M01/M14 A3041 RMK A01 T10141140  RH  038%=      5-min Rain = 0
KLE1 130344Z 04004KT M02/M14 A3041 RMK A01 T10151140  RH  038%=      5-min Rain = 0
KLE1 130345Z 04004KT M02/M14 A3041 RMK A01 T10151140  RH  038%=      5-min Rain = 0
KLE1 130346Z 04004KT M02/M14 A3041 RMK A01 T10161141  RH  038%=      5-min Rain = 0
KLE1 130347Z 04004KT M02/M14 A3041 RMK A01 T10171140  RH  038%=      5-min Rain = 0
KLE1 130348Z 03004KT M02/M14 A3041 RMK A01 T10171140  RH  039%=      5-min Rain = 0
KLE1 130349Z 02004KT M02/M14 A3041 RMK A01 T10171140  RH  039%=      5-min Rain = 0
KLE1 130350Z 02003KT M02/M14 A3041 RMK A01 T10181140  RH  039%=      5-min Rain = 0
KLE1 130351Z 02003KT M02/M14 A3041 RMK A01 T10181140  RH  039%=      5-min Rain = 0
KLE1 130352Z 02004KT M02/M14 A3041 RMK A01 T10181140  RH  039%=      5-min Rain = 0
KLE1 130353Z 02004KT M02/M14 A3042 RMK A01 T10181140  RH  039%=      5-min Rain = 0
KLE1 130354Z 01004KT M02/M14 A3042 RMK A01 T10181140  RH  039%=      5-min Rain = 0
KLE1 130355Z 02004KT M02/M14 A3042 RMK A01 T10181140  RH  039%=      5-min Rain = 0
KLE1 130356Z 02005KT M02/M14 A3042 RMK A01 T10201141  RH  039%=      5-min Rain = 0
KLE1 130357Z 02005KT M02/M14 A3042 RMK A01 T10201141  RH  039%=      5-min Rain = 0
KLE1 130358Z 02005KT M02/M14 A3042 RMK A01 T10211141  RH  039%=      5-min Rain = 0
KLE1 130359Z 02005KT M02/M14 A3042 RMK A01 T10221141  RH  039%=      5-min Rain = 0
KLE1 130400Z 02005KT M02/M14 A3042 RMK A01 T10231142  RH  040%=      5-min Rain = 0
KLE1 130401Z 02005KT M02/M14 A3042 RMK A01 T10231142  RH  040%=      5-min Rain = 0
KLE1 130402Z 02005KT M02/M14 A3042 RMK A01 T10241142  RH  040%=      5-min Rain = 0
KLE1 130403Z 02005KT M03/M14 A3042 RMK A01 T10251142  RH  040%=      5-min Rain = 0
KLE1 130404Z 02005KT M03/M14 A3042 RMK A01 T10251142  RH  040%=      5-min Rain = 0
KLE1 130405Z 02005KT M03/M14 A3042 RMK A01 T10261142  RH  041%=      5-min Rain = 0
KLE1 130406Z 02005KT M03/M14 A3043 RMK A01 T10261142  RH  041%=      5-min Rain = 0
KLE1 130407Z 02005KT M03/M14 A3043 RMK A01 T10271142  RH  041%=      5-min Rain = 0
KLE1 130408Z 02006KT M03/M14 A3043 RMK A01 T10271142  RH  041%=      5-min Rain = 0
KLE1 130409Z 02006KT M03/M14 A3043 RMK A01 T10271142  RH  041%=      5-min Rain = 0
KLE1 130410Z 02006KT M03/M14 A3043 RMK A01 T10271142  RH  041%=      5-min Rain = 0
KLE1 130411Z 02006KT M03/M14 A3043 RMK A01 T10281143  RH  041%=      5-min Rain = 0
KLE1 130412Z 01006KT M03/M14 A3043 RMK A01 T10291143  RH  041%=      5-min Rain = 0
KLE1 130413Z 01007KT M03/M14 A3043 RMK A01 T10291143  RH  041%=      5-min Rain = 0
KLE1 130414Z 02007KT M03/M14 A3043 RMK A01 T10301142  RH  041%=      5-min Rain = 0
KLE1 130415Z 02007KT M03/M14 A3043 RMK A01 T10301142  RH  042%=      5-min Rain = 0
KLE1 130416Z 02007KT M03/M14 A3043 RMK A01 T10301143  RH  042%=      5-min Rain = 0
KLE1 130417Z 02007KT M03/M14 A3043 RMK A01 T10311143  RH  042%=      5-min Rain = 0
KLE1 130418Z 02007KT M03/M14 A3043 RMK A01 T10311143  RH  042%=      5-min Rain = 0
KLE1 130419Z 02007KT M03/M14 A3043 RMK A01 T10311143  RH  042%=      5-min Rain = 0
KLE1 130420Z 02007KT M03/M14 A3043 RMK A01 T10321143  RH  042%=      5-min Rain = 0
KLE1 130421Z 02007KT M03/M14 A3043 RMK A01 T10321143  RH  042%=      5-min Rain = 0
KLE1 130422Z 02006KT M03/M14 A3043 RMK A01 T10331144  RH  042%=      5-min Rain = 0
KLE1 130423Z 02006KT M03/M14 A3044 RMK A01 T10331144  RH  042%=      5-min Rain = 0
KLE1 130424Z 02006KT M03/M14 A3043 RMK A01 T10331144  RH  042%=      5-min Rain = 0
KLE1 130425Z 02006KT M03/M15 A3043 RMK A01 T10341145  RH  042%=      5-min Rain = 0
KLE1 130426Z 02006KT M04/M15 A3044 RMK A01 T10351145  RH  042%=      5-min Rain = 0
KLE1 130427Z 02007KT M04/M15 A3044 RMK A01 T10351145  RH  042%=      5-min Rain = 0
KLE1 130428Z 02007KT M04/M15 A3044 RMK A01 T10351145  RH  042%=      5-min Rain = 0
KLE1 130429Z 03006KT M04/M15 A3044 RMK A01 T10361145  RH  043%=      5-min Rain = 0
KLE1 130430Z 03006KT M04/M15 A3044 RMK A01 T10361145  RH  043%=      5-min Rain = 0
KLE1 130431Z 03006KT M04/M15 A3044 RMK A01 T10371145  RH  043%=      5-min Rain = 0
KLE1 130432Z 03006KT M04/M15 A3044 RMK A01 T10371145  RH  043%=      5-min Rain = 0
KLE1 130433Z 03006KT M04/M15 A3044 RMK A01 T10371145  RH  043%=      5-min Rain = 0
KLE1 130434Z 03006KT M04/M15 A3044 RMK A01 T10361145  RH  043%=      5-min Rain = 0
KLE1 130435Z 03006KT M04/M14 A3044 RMK A01 T10361144  RH  043%=      5-min Rain = 0
KLE1 130436Z 03006KT M04/M14 A3044 RMK A01 T10361144  RH  043%=      5-min Rain = 0
KLE1 130437Z 04006KT M04/M15 A3044 RMK A01 T10371145  RH  043%=      5-min Rain = 0
KLE1 130438Z 04006KT M04/M15 A3043 RMK A01 T10371145  RH  043%=      5-min Rain = 0
KLE1 130439Z 04006KT M04/M15 A3043 RMK A01 T10361145  RH  043%=      5-min Rain = 0
KLE1 130440Z 04006KT M04/M15 A3043 RMK A01 T10361145  RH  043%=      5-min Rain = 0
KLE1 130441Z 04006KT M04/M14 A3043 RMK A01 T10361144  RH  043%=      5-min Rain = 0
KLE1 130442Z 04005KT M04/M14 A3043 RMK A01 T10351144  RH  043%=      5-min Rain = 0
KLE1 130443Z 04005KT M04/M14 A3043 RMK A01 T10351144  RH  043%=      5-min Rain = 0
KLE1 130444Z 05005KT M04/M14 A3043 RMK A01 T10351144  RH  043%=      5-min Rain = 0
KLE1 130445Z 06004KT M04/M14 A3043 RMK A01 T10351144  RH  043%=      5-min Rain = 0
KLE1 130446Z 05003KT M03/M14 A3043 RMK A01 T10341143  RH  043%=      5-min Rain = 0
KLE1 130447Z 04003KT M03/M14 A3043 RMK A01 T10341144  RH  043%=      5-min Rain = 0
KLE1 130448Z 05003KT M03/M14 A3043 RMK A01 T10341143  RH  042%=      5-min Rain = 0
KLE1 130449Z 08002KT M03/M14 A3043 RMK A01 T10331143  RH  042%=      5-min Rain = 0
KLE1 130450Z 10002KT M03/M14 A3042 RMK A01 T10331143  RH  042%=      5-min Rain = 0
KLE1 130451Z 10002KT M03/M14 A3042 RMK A01 T10321143  RH  042%=      5-min Rain = 0
KLE1 130452Z 10002KT M03/M14 A3042 RMK A01 T10311142  RH  042%=      5-min Rain = 0
KLE1 130453Z 10002KT M03/M14 A3042 RMK A01 T10301143  RH  042%=      5-min Rain = 0
KLE1 130454Z 12002KT M03/M14 A3042 RMK A01 T10291142  RH  041%=      5-min Rain = 0
KLE1 130455Z 14002KT M03/M14 A3042 RMK A01 T10281142  RH  041%=      5-min Rain = 0
KLE1 130456Z 15001KT M03/M14 A3042 RMK A01 T10271142  RH  041%=      5-min Rain = 0
KLE1 130457Z 16001KT M03/M14 A3042 RMK A01 T10271142  RH  041%=      5-min Rain = 0
KLE1 130458Z 17001KT M03/M14 A3042 RMK A01 T10271143  RH  040%=      5-min Rain = 0
KLE1 130459Z 15001KT M03/M14 A3042 RMK A01 T10271144  RH  040%=      5-min Rain = 0
KLE1 130500Z 14002KT M03/M14 A3042 RMK A01 T10281144  RH  041%=      5-min Rain = 0
KLE1 130501Z 15002KT M03/M14 A3042 RMK A01 T10291144  RH  041%=      5-min Rain = 0
KLE1 130502Z 16003KT M03/M14 A3042 RMK A01 T10301144  RH  041%=      5-min Rain = 0
KLE1 130503Z 18003KT M03/M15 A3042 RMK A01 T10311145  RH  041%=      5-min Rain = 0
KLE1 130504Z 19003KT M04/M15 A3042 RMK A01 T10351147  RH  042%=      5-min Rain = 0
KLE1 130505Z 20004KT M04/M15 A3043 RMK A01 T10391148  RH  042%=      5-min Rain = 0
KLE1 130506Z 21004KT M04/M15 A3043 RMK A01 T10411148  RH  043%=      5-min Rain = 0
KLE1 130507Z 21004KT M04/M15 A3043 RMK A01 T10441148  RH  044%=      5-min Rain = 0
KLE1 130508Z 21005KT M05/M15 A3043 RMK A01 T10461146  RH  045%=      5-min Rain = 0
KLE1 130509Z 21004KT M05/M15 A3043 RMK A01 T10471145  RH  046%=      5-min Rain = 0
KLE1 130510Z 20004KT M05/M14 A3043 RMK A01 T10471144  RH  047%=      5-min Rain = 0
KLE1 130511Z 21004KT M05/M14 A3043 RMK A01 T10471143  RH  047%=      5-min Rain = 0
KLE1 130512Z 21004KT M05/M14 A3043 RMK A01 T10461142  RH  047%=      5-min Rain = 0
KLE1 130513Z 21004KT M05/M14 A3043 RMK A01 T10451141  RH  047%=      5-min Rain = 0
KLE1 130514Z 21004KT M05/M14 A3043 RMK A01 T10451141  RH  047%=      5-min Rain = 0
KLE1 130515Z 20004KT M05/M14 A3044 RMK A01 T10451141  RH  047%=      5-min Rain = 0
KLE1 130516Z 20003KT M04/M14 A3044 RMK A01 T10441141  RH  047%=      5-min Rain = 0
KLE1 130517Z 21002KT M04/M14 A3044 RMK A01 T10431140  RH  047%=      5-min Rain = 0
KLE1 130518Z 21002KT M04/M14 A3044 RMK A01 T10421140  RH  046%=      5-min Rain = 0
KLE1 130519Z 22002KT M04/M14 A3044 RMK A01 T10401139  RH  046%=      5-min Rain = 0
KLE1 130520Z 24002KT M04/M14 A3044 RMK A01 T10391139  RH  046%=      5-min Rain = 0
KLE1 130521Z 25002KT M04/M14 A3045 RMK A01 T10371139  RH  045%=      5-min Rain = 0
KLE1 130522Z 28002KT M04/M14 A3045 RMK A01 T10361139  RH  045%=      5-min Rain = 0
KLE1 130523Z 28002KT M04/M14 A3045 RMK A01 T10361140  RH  044%=      5-min Rain = 0
KLE1 130524Z 28002KT M04/M14 A3045 RMK A01 T10361141  RH  044%=      5-min Rain = 0
KLE1 130525Z 28001KT M04/M14 A3045 RMK A01 T10361142  RH  044%=      5-min Rain = 0
KLE1 130526Z 28000KT M04/M14 A3045 RMK A01 T10371142  RH  044%=      5-min Rain = 0
KLE1 130527Z 00000KT M04/M14 A3044 RMK A01 T10371143  RH  044%=      5-min Rain = 0
KLE1 130528Z 00000KT M04/M14 A3044 RMK A01 T10371143  RH  044%=      5-min Rain = 0
KLE1 130529Z 00000KT M04/M14 A3044 RMK A01 T10371143  RH  044%=      5-min Rain = 0
KLE1 130530Z 32000KT M04/M14 A3044 RMK A01 T10361143  RH  043%=      5-min Rain = 0
KLE1 130531Z 33001KT M04/M14 A3044 RMK A01 T10351142  RH  043%=      5-min Rain = 0
KLE1 130532Z 34001KT M03/M14 A3045 RMK A01 T10341142  RH  043%=      5-min Rain = 0
KLE1 130533Z 35001KT M04/M14 A3045 RMK A01 T10351144  RH  043%=      5-min Rain = 0
KLE1 130534Z 35001KT M04/M14 A3045 RMK A01 T10361144  RH  043%=      5-min Rain = 0
KLE1 130535Z 33002KT M04/M14 A3044 RMK A01 T10381144  RH  043%=      5-min Rain = 0
KLE1 130536Z 35004KT M04/M14 A3044 RMK A01 T10381144  RH  044%=      5-min Rain = 0
KLE1 130537Z 34002KT M04/M14 A3044 RMK A01 T10401144  RH  044%=      5-min Rain = 0
KLE1 130538Z 34002KT M04/M14 A3044 RMK A01 T10431144  RH  045%=      5-min Rain = 0
KLE1 130539Z 35002KT M04/M14 A3044 RMK A01 T10441144  RH  045%=      5-min Rain = 0
KLE1 130540Z 35002KT M05/M14 A3044 RMK A01 T10451144  RH  046%=      5-min Rain = 0
KLE1 130541Z 35002KT M05/M14 A3044 RMK A01 T10451143  RH  046%=      5-min Rain = 0
KLE1 130542Z 36001KT M05/M14 A3044 RMK A01 T10451144  RH  046%=      5-min Rain = 0
KLE1 130543Z 01001KT M05/M14 A3044 RMK A01 T10451144  RH  046%=      5-min Rain = 0
KLE1 130544Z 02001KT M05/M14 A3044 RMK A01 T10451144  RH  046%=      5-min Rain = 0
KLE1 130545Z 03001KT M05/M14 A3044 RMK A01 T10451144  RH  046%=      5-min Rain = 0
KLE1 130546Z 02001KT M05/M14 A3044 RMK A01 T10451144  RH  046%=      5-min Rain = 0
KLE1 130547Z 01001KT M04/M14 A3045 RMK A01 T10441144  RH  046%=      5-min Rain = 0
KLE1 130548Z 00002KT M04/M14 A3045 RMK A01 T10441144  RH  045%=      5-min Rain = 0
KLE1 130549Z 35003KT M04/M15 A3045 RMK A01 T10441145  RH  045%=      5-min Rain = 0
KLE1 130550Z 35004KT M04/M15 A3045 RMK A01 T10441145  RH  045%=      5-min Rain = 0
KLE1 130551Z 35005KT M05/M15 A3046 RMK A01 T10451146  RH  045%=      5-min Rain = 0
KLE1 130552Z 35005KT M05/M15 A3046 RMK A01 T10471148  RH  045%=      5-min Rain = 0
KLE1 130553Z 36005KT M05/M15 A3046 RMK A01 T10501149  RH  046%=      5-min Rain = 0
KLE1 130554Z 36005KT M05/M15 A3046 RMK A01 T10521150  RH  046%=      5-min Rain = 0
KLE1 130555Z 35005KT M05/M15 A3046 RMK A01 T10531150  RH  047%=      5-min Rain = 0
KLE1 130556Z 35005KT M05/M15 A3046 RMK A01 T10541149  RH  047%=      5-min Rain = 0
KLE1 130557Z 34005KT M05/M15 A3047 RMK A01 T10541149  RH  047%=      5-min Rain = 0
KLE1 130558Z 34006KT M05/M15 A3047 RMK A01 T10541148  RH  047%=      5-min Rain = 0
KLE1 130559Z 34007KT M05/M15 A3047 RMK A01 T10541149  RH  048%=      5-min Rain = 0

Page generated in 0.1634 seconds.